FIN1A EFHK-KLAX
Flight info
| Callsign | FIN1A |
|---|---|
| Flight time | N/A |
| Altitude | 36000 |
| Route | NEPEK Y361 NISVI DCT DIVEG DCT LAMPI DCT OMEXA DCT 74N000E/M084F360 77N020W/M085F380 78N040W 77N060W 76N070W/N0490F380 74N080W 70N090W 65N095W/N0486F400 60N100W 55N105W DCT ITREK DCT KU90Q DCT PICHO Q842 WINEN DCT OVETO J107 BLD DCT HAKMN ANJLL4 |
| Aircraft | A359/H-SDE2E3GHIJ3J4J5LM1ORWXY/LB1D1 |
Departure
| Time | 2026-04-26 01:50 |
|---|---|
| Airport | Helsinki Vantaa Airport (EFHK) |
Arrival
| Time | N/A |
|---|---|
| Airport | Los Angeles International Airport (KLAX) |
| Time | Latitude | Longitude | Altitude | Speed | Heading |
|---|---|---|---|---|---|
| 2026-04-26 01:07 | 60.31389 | 24.95857 | 173 ft | 0 kts | 328° |
| 2026-04-26 01:14 | 60.31386 | 24.95860 | 173 ft | 0 kts | 328° |
| 2026-04-26 01:28 | 60.31389 | 24.95857 | 173 ft | 0 kts | 328° |
| 2026-04-26 01:36 | 60.31378 | 24.95870 | 173 ft | 4 kts | 322° |
| 2026-04-26 01:36 | 60.31359 | 24.95907 | 173 ft | 4 kts | 305° |
| 2026-04-26 01:37 | 60.31348 | 24.96002 | 173 ft | 3 kts | 233° |
| 2026-04-26 01:37 | 60.31350 | 24.96009 | 173 ft | 0 kts | 227° |
| 2026-04-26 01:41 | 60.31348 | 24.96004 | 173 ft | 3 kts | 227° |
| 2026-04-26 01:42 | 60.31303 | 24.95909 | 173 ft | 15 kts | 225° |
| 2026-04-26 01:42 | 60.31238 | 24.95756 | 173 ft | 18 kts | 227° |
| 2026-04-26 01:42 | 60.31174 | 24.95568 | 172 ft | 16 kts | 257° |
| 2026-04-26 01:42 | 60.31215 | 24.95440 | 172 ft | 10 kts | 318° |
| 2026-04-26 01:43 | 60.31266 | 24.95348 | 172 ft | 10 kts | 318° |
| 2026-04-26 01:43 | 60.31312 | 24.95257 | 172 ft | 9 kts | 315° |
| 2026-04-26 01:43 | 60.31357 | 24.95166 | 173 ft | 9 kts | 315° |
| 2026-04-26 01:43 | 60.31401 | 24.95079 | 173 ft | 9 kts | 314° |
| 2026-04-26 01:44 | 60.31447 | 24.95009 | 174 ft | 7 kts | 347° |
| 2026-04-26 01:44 | 60.31504 | 24.95049 | 175 ft | 12 kts | 32° |
| 2026-04-26 01:44 | 60.31582 | 24.95209 | 176 ft | 21 kts | 47° |
| 2026-04-26 01:44 | 60.31699 | 24.95458 | 177 ft | 26 kts | 46° |
| 2026-04-26 01:45 | 60.31821 | 24.95723 | 176 ft | 26 kts | 46° |
| 2026-04-26 01:45 | 60.31941 | 24.95986 | 176 ft | 25 kts | 50° |
| 2026-04-26 01:45 | 60.32060 | 24.96250 | 174 ft | 26 kts | 47° |
| 2026-04-26 01:45 | 60.32179 | 24.96515 | 174 ft | 25 kts | 47° |
| 2026-04-26 01:46 | 60.32278 | 24.96791 | 171 ft | 22 kts | 82° |
| 2026-04-26 01:46 | 60.32179 | 24.96978 | 172 ft | 20 kts | 154° |
| 2026-04-26 01:46 | 60.32051 | 24.97090 | 172 ft | 21 kts | 155° |
| 2026-04-26 01:46 | 60.31925 | 24.97244 | 169 ft | 22 kts | 154° |
| 2026-04-26 01:47 | 60.31781 | 24.97388 | 167 ft | 24 kts | 152° |
| 2026-04-26 01:47 | 60.31629 | 24.97546 | 164 ft | 25 kts | 153° |
| 2026-04-26 01:47 | 60.31465 | 24.97715 | 162 ft | 27 kts | 153° |
| 2026-04-26 01:47 | 60.31296 | 24.97890 | 164 ft | 27 kts | 153° |
| 2026-04-26 01:48 | 60.31127 | 24.98063 | 167 ft | 28 kts | 153° |
| 2026-04-26 01:48 | 60.30951 | 24.98228 | 164 ft | 27 kts | 156° |
| 2026-04-26 01:48 | 60.30780 | 24.98378 | 165 ft | 27 kts | 155° |
| 2026-04-26 01:48 | 60.30676 | 24.98641 | 162 ft | 26 kts | 74° |
| 2026-04-26 01:49 | 60.30800 | 24.98738 | 163 ft | 20 kts | 335° |
| 2026-04-26 01:49 | 60.30836 | 24.98698 | 162 ft | 0 kts | 332° |
| 2026-04-26 01:49 | 60.30879 | 24.98653 | 161 ft | 29 kts | 332° |
| 2026-04-26 01:49 | 60.31256 | 24.98266 | 165 ft | 92 kts | 334° |
| 2026-04-26 01:50 | 60.32010 | 24.97492 | 174 ft | 147 kts | 332° |
| 2026-04-26 01:50 | 60.32950 | 24.96621 | 802 ft | 149 kts | 335° |
| 2026-04-26 01:50 | 60.33934 | 24.95734 | 1453 ft | 163 kts | 338° |
| 2026-04-26 01:50 | 60.34957 | 24.94754 | 1831 ft | 183 kts | 337° |
| 2026-04-26 01:51 | 60.36132 | 24.93480 | 2148 ft | 199 kts | 336° |
| 2026-04-26 01:51 | 60.37359 | 24.92131 | 2640 ft | 207 kts | 338° |
| 2026-04-26 01:51 | 60.38651 | 24.90745 | 3218 ft | 213 kts | 338° |
| 2026-04-26 01:51 | 60.39257 | 24.90102 | 3487 ft | 215 kts | 338° |
| 2026-04-26 01:52 | 60.40483 | 24.88812 | 4061 ft | 218 kts | 338° |
| 2026-04-26 01:52 | 60.41840 | 24.87393 | 4686 ft | 221 kts | 338° |
| 2026-04-26 01:52 | 60.43080 | 24.86100 | 5278 ft | 223 kts | 338° |
| 2026-04-26 01:52 | 60.44444 | 24.84553 | 5980 ft | 225 kts | 334° |
| 2026-04-26 01:53 | 60.45789 | 24.82901 | 6583 ft | 229 kts | 333° |
| 2026-04-26 01:53 | 60.47158 | 24.81233 | 7154 ft | 234 kts | 333° |
| 2026-04-26 01:53 | 60.48575 | 24.79522 | 7751 ft | 239 kts | 333° |
| 2026-04-26 01:53 | 60.50023 | 24.77781 | 8369 ft | 245 kts | 333° |
| 2026-04-26 01:54 | 60.51500 | 24.76010 | 8979 ft | 249 kts | 333° |
| 2026-04-26 01:54 | 60.53013 | 24.74196 | 9587 ft | 255 kts | 333° |
| 2026-04-26 01:54 | 60.54585 | 24.72315 | 9897 ft | 270 kts | 333° |
| 2026-04-26 01:54 | 60.56256 | 24.70315 | 10181 ft | 286 kts | 332° |
| 2026-04-26 01:55 | 60.58018 | 24.68202 | 10480 ft | 301 kts | 332° |
| 2026-04-26 01:55 | 60.59871 | 24.65976 | 10762 ft | 316 kts | 332° |
| 2026-04-26 01:55 | 60.61798 | 24.63655 | 11144 ft | 326 kts | 332° |
| 2026-04-26 01:55 | 60.63742 | 24.61307 | 11737 ft | 330 kts | 332° |
| 2026-04-26 01:56 | 60.65726 | 24.58907 | 12383 ft | 333 kts | 332° |
| 2026-04-26 01:56 | 60.67732 | 24.56481 | 12929 ft | 339 kts | 331° |
| 2026-04-26 01:56 | 60.69781 | 24.53998 | 13503 ft | 342 kts | 331° |
| 2026-04-26 01:56 | 60.71831 | 24.51512 | 14058 ft | 345 kts | 331° |
| 2026-04-26 01:57 | 60.73917 | 24.48978 | 14554 ft | 349 kts | 331° |
| 2026-04-26 01:57 | 60.76010 | 24.46473 | 15138 ft | 352 kts | 332° |
| 2026-04-26 01:57 | 60.78169 | 24.44010 | 15565 ft | 356 kts | 333° |
| 2026-04-26 01:57 | 60.80351 | 24.41583 | 16168 ft | 358 kts | 333° |
| 2026-04-26 01:58 | 60.82563 | 24.39137 | 16566 ft | 365 kts | 333° |
| 2026-04-26 01:58 | 60.84806 | 24.36643 | 16993 ft | 370 kts | 332° |
| 2026-04-26 01:58 | 60.87057 | 24.34113 | 17720 ft | 368 kts | 333° |
| 2026-04-26 01:58 | 60.89310 | 24.31566 | 18224 ft | 372 kts | 332° |
| 2026-04-26 01:59 | 60.91600 | 24.28969 | 18604 ft | 377 kts | 332° |
| 2026-04-26 01:59 | 60.93877 | 24.26370 | 19298 ft | 373 kts | 333° |
| 2026-04-26 01:59 | 60.96143 | 24.23785 | 19616 ft | 382 kts | 332° |
| 2026-04-26 01:59 | 60.98503 | 24.21094 | 19899 ft | 391 kts | 332° |
| 2026-04-26 02:00 | 61.00890 | 24.18364 | 20383 ft | 393 kts | 332° |
| 2026-04-26 02:00 | 61.03277 | 24.15629 | 20989 ft | 394 kts | 332° |
| 2026-04-26 02:00 | 61.05671 | 24.12880 | 21758 ft | 390 kts | 331° |
| 2026-04-26 02:00 | 61.08048 | 24.10146 | 22188 ft | 394 kts | 331° |
| 2026-04-26 02:01 | 61.10468 | 24.07356 | 22646 ft | 397 kts | 331° |
| 2026-04-26 02:01 | 61.12868 | 24.04584 | 23216 ft | 398 kts | 331° |
| 2026-04-26 02:01 | 61.15298 | 24.01736 | 23494 ft | 403 kts | 330° |
| 2026-04-26 02:01 | 61.17727 | 23.98784 | 23983 ft | 403 kts | 330° |
| 2026-04-26 02:02 | 61.20103 | 23.95848 | 24421 ft | 404 kts | 329° |
| 2026-04-26 02:02 | 61.22529 | 23.92841 | 24641 ft | 411 kts | 329° |
| 2026-04-26 02:02 | 61.25009 | 23.89769 | 24874 ft | 416 kts | 330° |
| 2026-04-26 02:02 | 61.27494 | 23.86698 | 25379 ft | 415 kts | 330° |
| 2026-04-26 02:03 | 61.29996 | 23.83610 | 25666 ft | 421 kts | 330° |
| 2026-04-26 02:03 | 61.32528 | 23.80486 | 25936 ft | 425 kts | 330° |
| 2026-04-26 02:03 | 61.35077 | 23.77339 | 26445 ft | 425 kts | 329° |
| 2026-04-26 02:03 | 61.37622 | 23.74191 | 26767 ft | 428 kts | 330° |
| 2026-04-26 02:04 | 61.40195 | 23.71002 | 27161 ft | 430 kts | 330° |
| 2026-04-26 02:04 | 61.42775 | 23.67799 | 27537 ft | 432 kts | 330° |
| 2026-04-26 02:04 | 61.45369 | 23.64571 | 27885 ft | 435 kts | 330° |
| 2026-04-26 02:04 | 61.47978 | 23.61318 | 28209 ft | 438 kts | 330° |
| 2026-04-26 02:05 | 61.50604 | 23.58037 | 28564 ft | 440 kts | 330° |
| 2026-04-26 02:05 | 61.53211 | 23.54773 | 28896 ft | 443 kts | 330° |
| 2026-04-26 02:05 | 61.55897 | 23.51403 | 29235 ft | 446 kts | 330° |
| 2026-04-26 02:05 | 61.58528 | 23.48096 | 29563 ft | 448 kts | 330° |
| 2026-04-26 02:06 | 61.61211 | 23.44717 | 29837 ft | 451 kts | 330° |
| 2026-04-26 02:06 | 61.63904 | 23.41317 | 30099 ft | 453 kts | 330° |
| 2026-04-26 02:06 | 61.66615 | 23.37889 | 30322 ft | 456 kts | 329° |
| 2026-04-26 02:06 | 61.69344 | 23.34431 | 30539 ft | 458 kts | 329° |
| 2026-04-26 02:07 | 61.72072 | 23.30964 | 30871 ft | 457 kts | 330° |
| 2026-04-26 02:07 | 61.74800 | 23.27492 | 31161 ft | 457 kts | 330° |
| 2026-04-26 02:07 | 61.77538 | 23.24000 | 31342 ft | 461 kts | 330° |
| 2026-04-26 02:08 | 61.83039 | 23.16963 | 31621 ft | 467 kts | 329° |
| 2026-04-26 02:08 | 61.85820 | 23.13393 | 31843 ft | 469 kts | 329° |
| 2026-04-26 02:08 | 61.88605 | 23.09812 | 32108 ft | 469 kts | 329° |
| 2026-04-26 02:08 | 61.91398 | 23.06210 | 32382 ft | 469 kts | 329° |
| 2026-04-26 02:09 | 61.94178 | 23.02618 | 32602 ft | 469 kts | 329° |
| 2026-04-26 02:09 | 61.96962 | 22.99014 | 32862 ft | 469 kts | 329° |
| 2026-04-26 02:09 | 61.99758 | 22.95386 | 33097 ft | 469 kts | 329° |
| 2026-04-26 02:09 | 62.02541 | 22.91767 | 33309 ft | 469 kts | 329° |
| 2026-04-26 02:10 | 62.05321 | 22.88143 | 33618 ft | 466 kts | 329° |
| 2026-04-26 02:10 | 62.08076 | 22.84544 | 33963 ft | 463 kts | 329° |
| 2026-04-26 02:10 | 62.10820 | 22.80953 | 34121 ft | 464 kts | 329° |
| 2026-04-26 02:10 | 62.13573 | 22.77342 | 34225 ft | 465 kts | 329° |
| 2026-04-26 02:11 | 62.16342 | 22.73703 | 34374 ft | 466 kts | 329° |
| 2026-04-26 02:11 | 62.19100 | 22.70069 | 34540 ft | 466 kts | 329° |
| 2026-04-26 02:11 | 62.21869 | 22.66415 | 34603 ft | 468 kts | 329° |
| 2026-04-26 02:11 | 62.24648 | 22.62738 | 34734 ft | 469 kts | 329° |
| 2026-04-26 02:12 | 62.27422 | 22.59060 | 34887 ft | 469 kts | 329° |
| 2026-04-26 02:12 | 62.30192 | 22.55378 | 35069 ft | 469 kts | 329° |
| 2026-04-26 02:12 | 62.32968 | 22.51681 | 35185 ft | 469 kts | 329° |
| 2026-04-26 02:12 | 62.35706 | 22.48027 | 35315 ft | 469 kts | 329° |
| 2026-04-26 02:13 | 62.38484 | 22.44310 | 35447 ft | 468 kts | 329° |
| 2026-04-26 02:13 | 62.41239 | 22.40616 | 35673 ft | 466 kts | 329° |
| 2026-04-26 02:13 | 62.44003 | 22.36903 | 35734 ft | 468 kts | 329° |
| 2026-04-26 02:14 | 62.49561 | 22.29413 | 35729 ft | 473 kts | 329° |
| 2026-04-26 02:14 | 62.55152 | 22.21842 | 35728 ft | 473 kts | 329° |
| 2026-04-26 02:15 | 62.60722 | 22.14266 | 35743 ft | 472 kts | 329° |
| 2026-04-26 02:15 | 62.66295 | 22.06652 | 35735 ft | 474 kts | 328° |
| 2026-04-26 02:16 | 62.71833 | 21.99051 | 35736 ft | 474 kts | 328° |
| 2026-04-26 02:16 | 62.77411 | 21.91361 | 35734 ft | 474 kts | 328° |
| 2026-04-26 02:17 | 62.82976 | 21.83654 | 35742 ft | 474 kts | 328° |
| 2026-04-26 02:17 | 62.88547 | 21.75904 | 35744 ft | 474 kts | 328° |
| 2026-04-26 02:18 | 62.94306 | 21.68907 | 35746 ft | 473 kts | 334° |
| 2026-04-26 02:18 | 63.00219 | 21.62484 | 35747 ft | 473 kts | 334° |
| 2026-04-26 02:19 | 63.06144 | 21.56125 | 35746 ft | 473 kts | 334° |
| 2026-04-26 02:19 | 63.12051 | 21.49757 | 35758 ft | 471 kts | 334° |
| 2026-04-26 02:20 | 63.17902 | 21.43406 | 35754 ft | 470 kts | 334° |
| 2026-04-26 02:20 | 63.23777 | 21.36994 | 35769 ft | 470 kts | 334° |
| 2026-04-26 02:21 | 63.29652 | 21.30551 | 35767 ft | 470 kts | 334° |
| 2026-04-26 02:21 | 63.35511 | 21.24097 | 35765 ft | 470 kts | 334° |
| 2026-04-26 02:22 | 63.41385 | 21.17597 | 35791 ft | 471 kts | 334° |
| 2026-04-26 02:22 | 63.47253 | 21.11075 | 35763 ft | 471 kts | 334° |
| 2026-04-26 02:23 | 63.53106 | 21.04538 | 35777 ft | 469 kts | 334° |
| 2026-04-26 02:23 | 63.58925 | 20.97902 | 35785 ft | 468 kts | 333° |
| 2026-04-26 02:24 | 63.64700 | 20.91083 | 35787 ft | 469 kts | 333° |
| 2026-04-26 02:24 | 63.70426 | 20.84295 | 35801 ft | 469 kts | 333° |
| 2026-04-26 02:25 | 63.76205 | 20.77448 | 35796 ft | 469 kts | 333° |
| 2026-04-26 02:25 | 63.81982 | 20.70588 | 35815 ft | 469 kts | 333° |
| 2026-04-26 02:26 | 63.87757 | 20.63699 | 35798 ft | 469 kts | 333° |
| 2026-04-26 02:26 | 63.92552 | 20.57954 | 35803 ft | 467 kts | 333° |
| 2026-04-26 02:27 | 63.98293 | 20.51043 | 35806 ft | 467 kts | 333° |
| 2026-04-26 02:27 | 64.04032 | 20.44105 | 35815 ft | 467 kts | 333° |
| 2026-04-26 02:28 | 64.09771 | 20.37132 | 35815 ft | 467 kts | 333° |
| 2026-04-26 02:28 | 64.15502 | 20.30138 | 35816 ft | 467 kts | 333° |
| 2026-04-26 02:29 | 64.21231 | 20.23111 | 35826 ft | 467 kts | 333° |
| 2026-04-26 02:29 | 64.26958 | 20.16055 | 35822 ft | 466 kts | 332° |
| 2026-04-26 02:30 | 64.32658 | 20.08998 | 35839 ft | 464 kts | 332° |
| 2026-04-26 02:30 | 64.38337 | 20.01934 | 35840 ft | 464 kts | 332° |
| 2026-04-26 02:31 | 64.44025 | 19.94825 | 35838 ft | 464 kts | 332° |
| 2026-04-26 02:31 | 64.49666 | 19.87741 | 35848 ft | 464 kts | 332° |
| 2026-04-26 02:32 | 64.55338 | 19.80585 | 35848 ft | 464 kts | 332° |
| 2026-04-26 02:32 | 64.61001 | 19.73405 | 35848 ft | 464 kts | 332° |
| 2026-04-26 02:33 | 64.66672 | 19.66180 | 35849 ft | 464 kts | 332° |
| 2026-04-26 02:33 | 64.72323 | 19.58948 | 35863 ft | 463 kts | 332° |
| 2026-04-26 02:34 | 64.77970 | 19.51685 | 35862 ft | 463 kts | 332° |
| 2026-04-26 02:34 | 64.83619 | 19.44385 | 35852 ft | 463 kts | 332° |
| 2026-04-26 02:35 | 64.89230 | 19.37099 | 35852 ft | 463 kts | 332° |
| 2026-04-26 02:35 | 64.94885 | 19.29720 | 35876 ft | 463 kts | 332° |
| 2026-04-26 02:36 | 65.00514 | 19.22339 | 35876 ft | 463 kts | 332° |
| 2026-04-26 02:36 | 65.06137 | 19.14930 | 35865 ft | 461 kts | 332° |
| 2026-04-26 02:37 | 65.11741 | 19.07509 | 35870 ft | 460 kts | 332° |
| 2026-04-26 02:37 | 65.17293 | 19.00123 | 35871 ft | 460 kts | 332° |
| 2026-04-26 02:38 | 65.22879 | 18.92655 | 35870 ft | 460 kts | 332° |
| 2026-04-26 02:38 | 65.28462 | 18.85155 | 35871 ft | 460 kts | 332° |
| 2026-04-26 02:39 | 65.34039 | 18.77625 | 35874 ft | 460 kts | 331° |
| 2026-04-26 02:39 | 65.39621 | 18.70051 | 35873 ft | 460 kts | 331° |
| 2026-04-26 02:40 | 65.45152 | 18.62508 | 35881 ft | 458 kts | 331° |
| 2026-04-26 02:40 | 65.50694 | 18.54915 | 35874 ft | 458 kts | 331° |
| 2026-04-26 02:41 | 65.56237 | 18.47283 | 35882 ft | 458 kts | 331° |
| 2026-04-26 02:41 | 65.61771 | 18.39626 | 35882 ft | 459 kts | 331° |
| 2026-04-26 02:42 | 65.67310 | 18.31923 | 35874 ft | 459 kts | 331° |
| 2026-04-26 02:42 | 65.72839 | 18.24195 | 35882 ft | 459 kts | 331° |
| 2026-04-26 02:43 | 65.81133 | 18.12531 | 35860 ft | 458 kts | 331° |
| 2026-04-26 02:43 | 65.86619 | 18.04766 | 35878 ft | 455 kts | 330° |
| 2026-04-26 02:44 | 65.92098 | 17.96974 | 35884 ft | 456 kts | 330° |
| 2026-04-26 02:44 | 65.97584 | 17.89132 | 35883 ft | 456 kts | 330° |
| 2026-04-26 02:45 | 66.03056 | 17.81272 | 35877 ft | 456 kts | 330° |
| 2026-04-26 02:45 | 66.08501 | 17.73410 | 35883 ft | 456 kts | 330° |
| 2026-04-26 02:46 | 66.13977 | 17.65465 | 35882 ft | 456 kts | 330° |
| 2026-04-26 02:46 | 66.19441 | 17.57495 | 35858 ft | 456 kts | 330° |
| 2026-04-26 02:47 | 66.24900 | 17.49493 | 35890 ft | 455 kts | 330° |
| 2026-04-26 02:47 | 66.30353 | 17.41459 | 35878 ft | 455 kts | 330° |
| 2026-04-26 02:48 | 66.35796 | 17.33398 | 35871 ft | 455 kts | 330° |
| 2026-04-26 02:48 | 66.41205 | 17.25347 | 35870 ft | 455 kts | 330° |
| 2026-04-26 02:49 | 66.46643 | 17.17210 | 35870 ft | 455 kts | 330° |
| 2026-04-26 02:49 | 66.52074 | 17.09044 | 35867 ft | 455 kts | 330° |
| 2026-04-26 02:50 | 66.57510 | 17.00828 | 35867 ft | 455 kts | 330° |
| 2026-04-26 02:50 | 66.62939 | 16.92578 | 35869 ft | 456 kts | 330° |
| 2026-04-26 02:51 | 66.68368 | 16.84286 | 35871 ft | 458 kts | 329° |
| 2026-04-26 02:51 | 66.73832 | 16.75899 | 35871 ft | 460 kts | 329° |
| 2026-04-26 02:52 | 66.79295 | 16.67467 | 35874 ft | 460 kts | 329° |
| 2026-04-26 02:52 | 66.84720 | 16.59049 | 35882 ft | 460 kts | 329° |
| 2026-04-26 02:53 | 66.90180 | 16.50533 | 35881 ft | 460 kts | 329° |
| 2026-04-26 02:53 | 66.95620 | 16.42004 | 35881 ft | 460 kts | 329° |
| 2026-04-26 02:54 | 67.01052 | 16.33439 | 35885 ft | 457 kts | 329° |
| 2026-04-26 02:54 | 67.06442 | 16.24896 | 35887 ft | 455 kts | 329° |
| 2026-04-26 02:55 | 67.11818 | 16.16332 | 35889 ft | 455 kts | 329° |
| 2026-04-26 02:55 | 67.17197 | 16.07717 | 35897 ft | 455 kts | 329° |
| 2026-04-26 02:56 | 67.22564 | 15.99077 | 35895 ft | 455 kts | 329° |
| 2026-04-26 02:56 | 67.27929 | 15.90392 | 35896 ft | 455 kts | 329° |
| 2026-04-26 02:57 | 67.33286 | 15.81674 | 35913 ft | 455 kts | 329° |
| 2026-04-26 02:57 | 67.38606 | 15.72970 | 35906 ft | 454 kts | 328° |
| 2026-04-26 02:58 | 67.43940 | 15.64195 | 35935 ft | 453 kts | 328° |
| 2026-04-26 02:58 | 67.49254 | 15.55407 | 35914 ft | 452 kts | 328° |
| 2026-04-26 02:59 | 67.54567 | 15.46573 | 35914 ft | 453 kts | 328° |
| 2026-04-26 02:59 | 67.59887 | 15.37679 | 35918 ft | 453 kts | 328° |
| 2026-04-26 03:00 | 67.65192 | 15.28764 | 35911 ft | 452 kts | 328° |
| 2026-04-26 03:00 | 67.70488 | 15.19812 | 35913 ft | 452 kts | 328° |
| 2026-04-26 03:01 | 67.75778 | 15.10825 | 35878 ft | 452 kts | 328° |
| 2026-04-26 03:01 | 67.81013 | 15.01881 | 35912 ft | 450 kts | 328° |
| 2026-04-26 03:02 | 67.86264 | 14.92859 | 35923 ft | 449 kts | 328° |
| 2026-04-26 03:02 | 67.91528 | 14.83770 | 35928 ft | 453 kts | 328° |
| 2026-04-26 03:03 | 67.96827 | 14.74568 | 35923 ft | 454 kts | 328° |
| 2026-04-26 03:03 | 68.02109 | 14.65343 | 35906 ft | 454 kts | 327° |
| 2026-04-26 03:04 | 68.07394 | 14.56064 | 35938 ft | 454 kts | 327° |
| 2026-04-26 03:04 | 68.12632 | 14.46814 | 35921 ft | 454 kts | 327° |
| 2026-04-26 03:05 | 68.17887 | 14.37483 | 35914 ft | 451 kts | 327° |
| 2026-04-26 03:05 | 68.23089 | 14.28192 | 35895 ft | 447 kts | 327° |
| 2026-04-26 03:06 | 68.28276 | 14.18881 | 35902 ft | 448 kts | 327° |
| 2026-04-26 03:06 | 68.33478 | 14.09489 | 35906 ft | 450 kts | 327° |
| 2026-04-26 03:07 | 68.38687 | 14.00033 | 35936 ft | 451 kts | 327° |
| 2026-04-26 03:07 | 68.43859 | 13.90589 | 35930 ft | 451 kts | 327° |
| 2026-04-26 03:08 | 68.49068 | 13.81026 | 35933 ft | 451 kts | 327° |
| 2026-04-26 03:08 | 68.54260 | 13.71438 | 35909 ft | 450 kts | 326° |
| 2026-04-26 03:09 | 68.59433 | 13.61832 | 35934 ft | 447 kts | 326° |
| 2026-04-26 03:09 | 68.64538 | 13.52297 | 35942 ft | 447 kts | 326° |
| 2026-04-26 03:10 | 68.69682 | 13.42639 | 35949 ft | 450 kts | 326° |
| 2026-04-26 03:10 | 68.74858 | 13.32864 | 35940 ft | 452 kts | 326° |
| 2026-04-26 03:11 | 68.80044 | 13.23011 | 35941 ft | 452 kts | 326° |
| 2026-04-26 03:11 | 68.85211 | 13.13140 | 35950 ft | 452 kts | 326° |
| 2026-04-26 03:12 | 68.90375 | 13.03216 | 35950 ft | 452 kts | 326° |
| 2026-04-26 03:12 | 68.95536 | 12.93242 | 35950 ft | 450 kts | 325° |
| 2026-04-26 03:13 | 69.00658 | 12.83282 | 35955 ft | 448 kts | 325° |
| 2026-04-26 03:13 | 69.05788 | 12.73452 | 35985 ft | 447 kts | 327° |
| 2026-04-26 03:14 | 69.10987 | 12.63969 | 35957 ft | 451 kts | 327° |
| 2026-04-26 03:14 | 69.16263 | 12.54315 | 35967 ft | 453 kts | 327° |
| 2026-04-26 03:15 | 69.21519 | 12.44553 | 35964 ft | 452 kts | 326° |
| 2026-04-26 03:15 | 69.26765 | 12.34708 | 35963 ft | 452 kts | 326° |
| 2026-04-26 03:16 | 69.31118 | 12.26492 | 35962 ft | 452 kts | 326° |
| 2026-04-26 03:16 | 69.37188 | 12.14968 | 35971 ft | 449 kts | 326° |
| 2026-04-26 03:17 | 69.41495 | 12.06747 | 35968 ft | 448 kts | 326° |
| 2026-04-26 03:17 | 69.46668 | 11.96818 | 35974 ft | 449 kts | 326° |
| 2026-04-26 03:18 | 69.51861 | 11.86791 | 35979 ft | 452 kts | 326° |
| 2026-04-26 03:18 | 69.57079 | 11.76656 | 35978 ft | 453 kts | 326° |
| 2026-04-26 03:19 | 69.62253 | 11.66548 | 35976 ft | 453 kts | 326° |
| 2026-04-26 03:19 | 69.67451 | 11.56330 | 35989 ft | 453 kts | 326° |
| 2026-04-26 03:20 | 69.72645 | 11.46058 | 35986 ft | 453 kts | 325° |
| 2026-04-26 03:20 | 69.77832 | 11.35737 | 35985 ft | 450 kts | 325° |
| 2026-04-26 03:21 | 69.82970 | 11.25453 | 35993 ft | 449 kts | 325° |
| 2026-04-26 03:21 | 69.88109 | 11.15103 | 35994 ft | 451 kts | 325° |
| 2026-04-26 03:22 | 69.93286 | 11.04612 | 35992 ft | 453 kts | 325° |
| 2026-04-26 03:22 | 69.98454 | 10.94076 | 36000 ft | 453 kts | 324° |
| 2026-04-26 03:23 | 70.03593 | 10.83535 | 36000 ft | 453 kts | 324° |
| 2026-04-26 03:23 | 70.08752 | 10.72886 | 36002 ft | 453 kts | 324° |
| 2026-04-26 03:24 | 70.13902 | 10.62190 | 36003 ft | 453 kts | 324° |
| 2026-04-26 03:24 | 70.19043 | 10.51450 | 36004 ft | 452 kts | 324° |
| 2026-04-26 03:25 | 70.24150 | 10.40710 | 36039 ft | 451 kts | 324° |
| 2026-04-26 03:25 | 70.29271 | 10.29872 | 36007 ft | 454 kts | 324° |
| 2026-04-26 03:26 | 70.34415 | 10.18917 | 36007 ft | 455 kts | 324° |
| 2026-04-26 03:26 | 70.39554 | 10.07907 | 36007 ft | 455 kts | 323° |
| 2026-04-26 03:27 | 70.44657 | 9.96902 | 36008 ft | 455 kts | 323° |
| 2026-04-26 03:27 | 70.49776 | 9.85793 | 36015 ft | 455 kts | 323° |
| 2026-04-26 03:28 | 70.54897 | 9.74608 | 36015 ft | 455 kts | 323° |
| 2026-04-26 03:28 | 70.60024 | 9.63339 | 36015 ft | 455 kts | 323° |
| 2026-04-26 03:29 | 70.65126 | 9.52052 | 36031 ft | 456 kts | 323° |
| 2026-04-26 03:29 | 70.70261 | 9.40618 | 36025 ft | 459 kts | 323° |
| 2026-04-26 03:30 | 70.75400 | 9.29101 | 36027 ft | 460 kts | 323° |
| 2026-04-26 03:30 | 70.80537 | 9.17513 | 36018 ft | 460 kts | 323° |
| 2026-04-26 03:31 | 70.85634 | 9.05939 | 36037 ft | 460 kts | 323° |
| 2026-04-26 03:31 | 70.90758 | 8.94228 | 36038 ft | 460 kts | 323° |
| 2026-04-26 03:32 | 70.95867 | 8.82472 | 36028 ft | 459 kts | 322° |
| 2026-04-26 03:32 | 71.00949 | 8.70702 | 36036 ft | 457 kts | 322° |
| 2026-04-26 03:33 | 71.06018 | 8.58883 | 36038 ft | 457 kts | 322° |
| 2026-04-26 03:33 | 71.11076 | 8.47010 | 36041 ft | 457 kts | 322° |
| 2026-04-26 03:34 | 71.16124 | 8.35084 | 36041 ft | 457 kts | 322° |
| 2026-04-26 03:34 | 71.21131 | 8.23176 | 36041 ft | 457 kts | 322° |
| 2026-04-26 03:35 | 71.26169 | 8.11112 | 36053 ft | 457 kts | 322° |
| 2026-04-26 03:35 | 71.31196 | 7.98995 | 36054 ft | 457 kts | 322° |
| 2026-04-26 03:36 | 71.36206 | 7.86837 | 36054 ft | 456 kts | 321° |
| 2026-04-26 03:36 | 71.41199 | 7.74637 | 36072 ft | 456 kts | 321° |
| 2026-04-26 03:37 | 71.46207 | 7.62318 | 36059 ft | 459 kts | 321° |
| 2026-04-26 03:37 | 71.51229 | 7.49879 | 36057 ft | 459 kts | 321° |
| 2026-04-26 03:38 | 71.56241 | 7.37380 | 36062 ft | 459 kts | 321° |
| 2026-04-26 03:38 | 71.61219 | 7.24880 | 36065 ft | 459 kts | 321° |
| 2026-04-26 03:39 | 71.66215 | 7.12249 | 36065 ft | 459 kts | 321° |
| 2026-04-26 03:39 | 71.71206 | 6.99544 | 36067 ft | 459 kts | 320° |
| 2026-04-26 03:40 | 71.76179 | 6.86794 | 36075 ft | 458 kts | 320° |
| 2026-04-26 03:40 | 71.81140 | 6.73987 | 36084 ft | 459 kts | 320° |
| 2026-04-26 03:41 | 71.86115 | 6.61052 | 36075 ft | 461 kts | 320° |
| 2026-04-26 03:41 | 71.91070 | 6.48079 | 36085 ft | 462 kts | 320° |
| 2026-04-26 03:42 | 71.96076 | 6.34882 | 36083 ft | 462 kts | 320° |
| 2026-04-26 03:42 | 72.01036 | 6.21708 | 36083 ft | 462 kts | 320° |
| 2026-04-26 03:43 | 72.05956 | 6.08552 | 36094 ft | 462 kts | 320° |
| 2026-04-26 03:43 | 72.10903 | 5.95225 | 36094 ft | 462 kts | 319° |
| 2026-04-26 03:44 | 72.15835 | 5.81844 | 36094 ft | 460 kts | 319° |
| 2026-04-26 03:44 | 72.20747 | 5.68420 | 36105 ft | 462 kts | 319° |
| 2026-04-26 03:45 | 72.25677 | 5.54848 | 36105 ft | 463 kts | 319° |
| 2026-04-26 03:45 | 72.30602 | 5.41195 | 36105 ft | 463 kts | 319° |
| 2026-04-26 03:46 | 72.35519 | 5.27461 | 36113 ft | 463 kts | 319° |
| 2026-04-26 03:47 | 72.42880 | 5.06711 | 36113 ft | 463 kts | 318° |
| 2026-04-26 03:47 | 72.47742 | 4.92880 | 36116 ft | 463 kts | 318° |
| 2026-04-26 03:48 | 72.52627 | 4.78882 | 36122 ft | 463 kts | 318° |
| 2026-04-26 03:48 | 72.57495 | 4.64826 | 36128 ft | 464 kts | 318° |
| 2026-04-26 03:49 | 72.62379 | 4.50617 | 36130 ft | 466 kts | 318° |
| 2026-04-26 03:49 | 72.67261 | 4.36309 | 36138 ft | 466 kts | 317° |
| 2026-04-26 03:50 | 72.72135 | 4.21917 | 36134 ft | 466 kts | 317° |
| 2026-04-26 03:50 | 72.77004 | 4.07429 | 36137 ft | 466 kts | 317° |
| 2026-04-26 03:51 | 72.81864 | 3.92859 | 36148 ft | 466 kts | 317° |
| 2026-04-26 03:51 | 72.86703 | 3.78239 | 36153 ft | 466 kts | 317° |
| 2026-04-26 03:52 | 72.91501 | 3.63631 | 36151 ft | 466 kts | 317° |
| 2026-04-26 03:52 | 72.96323 | 3.48838 | 36167 ft | 467 kts | 316° |
| 2026-04-26 03:53 | 73.01143 | 3.33935 | 36165 ft | 468 kts | 316° |
| 2026-04-26 03:53 | 73.05976 | 3.18878 | 36164 ft | 468 kts | 316° |
| 2026-04-26 03:54 | 73.10785 | 3.03777 | 36159 ft | 468 kts | 316° |
| 2026-04-26 03:54 | 73.15588 | 2.88577 | 36172 ft | 468 kts | 316° |
| 2026-04-26 03:55 | 73.20372 | 2.73315 | 36172 ft | 468 kts | 316° |
| 2026-04-26 03:55 | 73.25146 | 2.57965 | 36173 ft | 468 kts | 316° |
| 2026-04-26 03:56 | 73.29882 | 2.42616 | 36192 ft | 468 kts | 315° |
| 2026-04-26 03:56 | 73.34645 | 2.27058 | 36185 ft | 470 kts | 315° |
| 2026-04-26 03:57 | 73.39412 | 2.11360 | 36185 ft | 471 kts | 315° |
| 2026-04-26 03:57 | 73.44160 | 1.95599 | 36198 ft | 470 kts | 315° |
| 2026-04-26 03:58 | 73.48904 | 1.79725 | 36198 ft | 470 kts | 315° |
| 2026-04-26 03:58 | 73.53627 | 1.63789 | 36198 ft | 470 kts | 315° |
| 2026-04-26 03:59 | 73.58342 | 1.47754 | 36212 ft | 470 kts | 315° |
| 2026-04-26 03:59 | 73.63013 | 1.31737 | 36211 ft | 470 kts | 314° |
| 2026-04-26 04:00 | 73.67698 | 1.15538 | 36218 ft | 471 kts | 314° |
| 2026-04-26 04:00 | 73.72385 | 0.99197 | 36225 ft | 473 kts | 314° |
| 2026-04-26 04:01 | 73.77081 | 0.82693 | 36224 ft | 473 kts | 314° |
| 2026-04-26 04:01 | 73.81753 | 0.66133 | 36222 ft | 473 kts | 314° |
| 2026-04-26 04:02 | 73.86411 | 0.49488 | 36235 ft | 473 kts | 314° |
| 2026-04-26 04:02 | 73.91068 | 0.32701 | 36236 ft | 473 kts | 313° |
| 2026-04-26 04:03 | 73.95665 | 0.15990 | 36238 ft | 473 kts | 313° |
| 2026-04-26 04:03 | 74.00286 | -0.00948 | 36245 ft | 472 kts | 313° |
| 2026-04-26 04:04 | 74.04671 | -0.18768 | 36252 ft | 474 kts | 308° |
| 2026-04-26 04:04 | 74.08825 | -0.37417 | 36247 ft | 474 kts | 308° |
| 2026-04-26 04:05 | 74.12993 | -0.56061 | 36251 ft | 474 kts | 308° |
| 2026-04-26 04:05 | 74.17196 | -0.74679 | 36248 ft | 474 kts | 308° |
| 2026-04-26 04:06 | 74.20717 | -0.90305 | 36251 ft | 474 kts | 308° |
| 2026-04-26 04:06 | 74.24881 | -1.08931 | 36265 ft | 474 kts | 308° |
| 2026-04-26 04:07 | 74.29058 | -1.27796 | 36263 ft | 474 kts | 308° |
| 2026-04-26 04:07 | 74.33210 | -1.46734 | 36258 ft | 474 kts | 308° |
| 2026-04-26 04:08 | 74.37345 | -1.65766 | 36275 ft | 475 kts | 307° |
| 2026-04-26 04:08 | 74.41480 | -1.84976 | 36277 ft | 476 kts | 307° |
| 2026-04-26 04:09 | 74.45596 | -2.04271 | 36274 ft | 476 kts | 307° |
| 2026-04-26 04:09 | 74.49670 | -2.23545 | 36306 ft | 476 kts | 307° |
| 2026-04-26 04:10 | 74.53756 | -2.43057 | 36288 ft | 476 kts | 307° |
| 2026-04-26 04:10 | 74.57825 | -2.62673 | 36289 ft | 476 kts | 307° |
| 2026-04-26 04:11 | 74.61880 | -2.82405 | 36298 ft | 476 kts | 306° |
| 2026-04-26 04:11 | 74.65909 | -3.02196 | 36318 ft | 475 kts | 306° |
| 2026-04-26 04:12 | 74.69919 | -3.22084 | 36315 ft | 475 kts | 306° |
| 2026-04-26 04:12 | 74.73910 | -3.42064 | 36310 ft | 475 kts | 306° |
| 2026-04-26 04:13 | 74.77860 | -3.62028 | 36312 ft | 475 kts | 306° |
| 2026-04-26 04:13 | 74.81812 | -3.82194 | 36314 ft | 475 kts | 305° |
| 2026-04-26 04:14 | 74.85753 | -4.02500 | 36338 ft | 475 kts | 305° |
| 2026-04-26 04:14 | 74.89671 | -4.22885 | 36345 ft | 475 kts | 305° |
| 2026-04-26 04:15 | 74.93574 | -4.43389 | 36344 ft | 475 kts | 304° |
| 2026-04-26 04:15 | 74.97453 | -4.63972 | 36336 ft | 475 kts | 304° |
| 2026-04-26 04:16 | 75.01310 | -4.84637 | 36354 ft | 475 kts | 304° |
| 2026-04-26 04:16 | 75.05131 | -5.05311 | 36352 ft | 476 kts | 304° |
| 2026-04-26 04:17 | 75.08970 | -5.26293 | 36364 ft | 476 kts | 304° |
| 2026-04-26 04:17 | 75.12781 | -5.47324 | 36363 ft | 475 kts | 303° |
| 2026-04-26 04:18 | 75.16566 | -5.68433 | 36371 ft | 475 kts | 303° |
| 2026-04-26 04:18 | 75.20336 | -5.89663 | 36380 ft | 475 kts | 303° |
| 2026-04-26 04:19 | 75.24086 | -6.11005 | 36381 ft | 475 kts | 303° |
| 2026-04-26 04:19 | 75.27822 | -6.32479 | 36384 ft | 476 kts | 302° |
| 2026-04-26 04:20 | 75.31530 | -6.54012 | 36397 ft | 476 kts | 302° |
| 2026-04-26 04:20 | 75.35225 | -6.75695 | 36405 ft | 475 kts | 302° |
| 2026-04-26 04:21 | 75.38871 | -6.97317 | 36398 ft | 476 kts | 302° |
| 2026-04-26 04:21 | 75.42538 | -7.19283 | 36411 ft | 478 kts | 302° |
| 2026-04-26 04:22 | 75.46183 | -7.41351 | 36414 ft | 477 kts | 301° |
| 2026-04-26 04:22 | 75.49800 | -7.63487 | 36412 ft | 476 kts | 301° |
| 2026-04-26 04:23 | 75.53407 | -7.85797 | 36424 ft | 477 kts | 301° |
| 2026-04-26 04:23 | 75.56987 | -8.08171 | 36425 ft | 476 kts | 301° |
| 2026-04-26 04:24 | 75.60509 | -8.30428 | 36426 ft | 475 kts | 300° |
| 2026-04-26 04:24 | 75.64027 | -8.52903 | 36445 ft | 475 kts | 300° |
| 2026-04-26 04:25 | 75.67527 | -8.75504 | 36438 ft | 474 kts | 300° |
| 2026-04-26 04:25 | 75.71000 | -8.98177 | 36438 ft | 474 kts | 300° |
| 2026-04-26 04:26 | 75.74455 | -9.20979 | 36449 ft | 475 kts | 300° |
| 2026-04-26 04:26 | 75.77890 | -9.43906 | 36452 ft | 476 kts | 299° |
| 2026-04-26 04:27 | 75.81308 | -9.66970 | 36451 ft | 475 kts | 299° |
| 2026-04-26 04:27 | 75.84704 | -9.90142 | 36462 ft | 475 kts | 299° |
| 2026-04-26 04:28 | 75.88078 | -10.13427 | 36468 ft | 475 kts | 298° |
| 2026-04-26 04:28 | 75.91428 | -10.36812 | 36467 ft | 476 kts | 298° |
| 2026-04-26 04:29 | 75.94769 | -10.60402 | 36472 ft | 479 kts | 298° |
| 2026-04-26 04:29 | 75.98109 | -10.84258 | 36476 ft | 480 kts | 298° |
| 2026-04-26 04:30 | 76.01406 | -11.08083 | 36478 ft | 481 kts | 298° |
| 2026-04-26 04:30 | 76.04697 | -11.32143 | 36482 ft | 481 kts | 298° |
| 2026-04-26 04:31 | 76.07974 | -11.56395 | 36482 ft | 481 kts | 297° |
| 2026-04-26 04:31 | 76.11217 | -11.80679 | 36487 ft | 480 kts | 297° |
| 2026-04-26 04:32 | 76.14439 | -12.05099 | 36492 ft | 480 kts | 297° |
| 2026-04-26 04:32 | 76.17633 | -12.29599 | 36492 ft | 480 kts | 297° |
| 2026-04-26 04:33 | 76.20784 | -12.54070 | 36497 ft | 481 kts | 296° |
| 2026-04-26 04:33 | 76.23943 | -12.78903 | 36500 ft | 482 kts | 296° |
| 2026-04-26 04:34 | 76.27075 | -13.03834 | 36500 ft | 482 kts | 296° |
| 2026-04-26 04:34 | 76.30170 | -13.28772 | 36508 ft | 482 kts | 296° |
| 2026-04-26 04:35 | 76.33250 | -13.53908 | 36508 ft | 482 kts | 295° |
| 2026-04-26 04:35 | 76.36311 | -13.79208 | 36508 ft | 482 kts | 295° |
| 2026-04-26 04:36 | 76.39339 | -14.04565 | 36508 ft | 482 kts | 295° |
| 2026-04-26 04:36 | 76.42346 | -14.30061 | 36509 ft | 482 kts | 295° |
| 2026-04-26 04:37 | 76.45322 | -14.55630 | 36524 ft | 482 kts | 294° |
| 2026-04-26 04:37 | 76.48280 | -14.81388 | 36511 ft | 483 kts | 294° |
| 2026-04-26 04:38 | 76.51214 | -15.07269 | 36510 ft | 484 kts | 294° |
| 2026-04-26 04:38 | 76.54107 | -15.33125 | 36510 ft | 483 kts | 294° |
| 2026-04-26 04:39 | 76.56986 | -15.59218 | 36509 ft | 483 kts | 294° |
| 2026-04-26 04:39 | 76.59840 | -15.85431 | 36513 ft | 483 kts | 293° |
| 2026-04-26 04:40 | 76.62670 | -16.11783 | 36516 ft | 483 kts | 293° |
| 2026-04-26 04:40 | 76.65472 | -16.38235 | 36512 ft | 483 kts | 293° |
| 2026-04-26 04:41 | 76.68242 | -16.64742 | 36508 ft | 483 kts | 292° |
| 2026-04-26 04:41 | 76.70988 | -16.91426 | 36519 ft | 484 kts | 292° |
| 2026-04-26 04:42 | 76.73714 | -17.18283 | 36519 ft | 485 kts | 292° |
| 2026-04-26 04:42 | 76.76413 | -17.45253 | 36515 ft | 485 kts | 292° |
| 2026-04-26 04:43 | 76.79067 | -17.72157 | 36522 ft | 485 kts | 291° |
| 2026-04-26 04:43 | 76.81710 | -17.99350 | 36523 ft | 485 kts | 291° |
| 2026-04-26 04:44 | 76.84319 | -18.26590 | 36522 ft | 485 kts | 291° |
| 2026-04-26 04:44 | 76.86899 | -18.53949 | 36523 ft | 485 kts | 291° |
| 2026-04-26 04:45 | 76.89455 | -18.81458 | 36528 ft | 485 kts | 290° |
| 2026-04-26 04:45 | 76.91979 | -19.09041 | 36531 ft | 486 kts | 290° |
| 2026-04-26 04:46 | 76.94485 | -19.36861 | 36530 ft | 487 kts | 290° |
| 2026-04-26 04:46 | 76.96961 | -19.64776 | 36531 ft | 487 kts | 290° |
| 2026-04-26 04:47 | 76.99404 | -19.92753 | 36531 ft | 487 kts | 290° |
| 2026-04-26 04:47 | 77.01864 | -20.20614 | 36533 ft | 487 kts | 291° |
| 2026-04-26 04:48 | 77.05762 | -20.62443 | 36535 ft | 487 kts | 291° |
| 2026-04-26 04:48 | 77.08311 | -20.90468 | 36535 ft | 487 kts | 290° |
| 2026-04-26 04:49 | 77.10812 | -21.18655 | 36536 ft | 487 kts | 290° |
| 2026-04-26 04:49 | 77.13277 | -21.46964 | 36542 ft | 488 kts | 290° |
| 2026-04-26 04:50 | 77.15717 | -21.75442 | 36540 ft | 489 kts | 289° |
| 2026-04-26 04:50 | 77.18131 | -22.04057 | 36544 ft | 489 kts | 289° |
| 2026-04-26 04:51 | 77.20497 | -22.32573 | 36547 ft | 489 kts | 289° |
| 2026-04-26 04:51 | 77.22860 | -22.61532 | 36551 ft | 488 kts | 289° |
| 2026-04-26 04:52 | 77.25161 | -22.90221 | 36547 ft | 488 kts | 288° |
| 2026-04-26 04:52 | 77.27450 | -23.19255 | 36541 ft | 488 kts | 288° |
| 2026-04-26 04:53 | 77.29699 | -23.48288 | 36543 ft | 488 kts | 288° |
| 2026-04-26 04:53 | 77.31550 | -23.72560 | 36543 ft | 488 kts | 288° |
| 2026-04-26 04:54 | 77.33744 | -24.01819 | 36536 ft | 488 kts | 287° |
| 2026-04-26 04:54 | 77.35906 | -24.31176 | 36537 ft | 488 kts | 287° |
| 2026-04-26 04:55 | 77.38035 | -24.60621 | 36534 ft | 488 kts | 287° |
| 2026-04-26 04:55 | 77.40133 | -24.90177 | 36535 ft | 487 kts | 286° |
| 2026-04-26 04:56 | 77.42198 | -25.19826 | 36535 ft | 487 kts | 286° |
| 2026-04-26 04:56 | 77.44225 | -25.49491 | 36525 ft | 487 kts | 286° |
| 2026-04-26 04:57 | 77.46212 | -25.79131 | 36525 ft | 487 kts | 285° |
| 2026-04-26 04:57 | 77.48180 | -26.09080 | 36529 ft | 488 kts | 285° |
| 2026-04-26 04:58 | 77.50113 | -26.39090 | 36527 ft | 488 kts | 285° |
| 2026-04-26 04:58 | 77.52013 | -26.69200 | 36520 ft | 488 kts | 285° |
| 2026-04-26 04:59 | 77.53881 | -26.99437 | 36529 ft | 489 kts | 284° |
| 2026-04-26 04:59 | 77.55716 | -27.29758 | 36522 ft | 489 kts | 284° |
| 2026-04-26 05:00 | 77.57517 | -27.60159 | 36517 ft | 488 kts | 284° |
| 2026-04-26 05:00 | 77.59284 | -27.90647 | 36522 ft | 488 kts | 283° |
| 2026-04-26 05:01 | 77.61014 | -28.21182 | 36520 ft | 488 kts | 283° |
| 2026-04-26 05:01 | 77.62710 | -28.51799 | 36511 ft | 489 kts | 283° |
| 2026-04-26 05:02 | 77.64370 | -28.82452 | 36511 ft | 490 kts | 283° |
| 2026-04-26 05:02 | 77.66004 | -29.13371 | 36511 ft | 490 kts | 282° |
| 2026-04-26 05:03 | 77.67606 | -29.44411 | 36495 ft | 490 kts | 282° |
| 2026-04-26 05:03 | 77.69171 | -29.75502 | 36497 ft | 490 kts | 282° |
| 2026-04-26 05:04 | 77.70700 | -30.06641 | 36495 ft | 490 kts | 281° |
| 2026-04-26 05:04 | 77.72187 | -30.37721 | 36481 ft | 490 kts | 281° |
| 2026-04-26 05:05 | 77.73644 | -30.68993 | 36481 ft | 490 kts | 281° |
| 2026-04-26 05:05 | 77.75070 | -31.00408 | 36479 ft | 491 kts | 280° |
| 2026-04-26 05:06 | 77.76461 | -31.31949 | 36470 ft | 492 kts | 281° |
| 2026-04-26 05:06 | 77.77816 | -31.63561 | 36473 ft | 492 kts | 280° |
| 2026-04-26 05:07 | 77.79128 | -31.95039 | 36465 ft | 492 kts | 279° |
| 2026-04-26 05:07 | 77.80414 | -32.26828 | 36454 ft | 492 kts | 279° |
| 2026-04-26 05:08 | 77.81662 | -32.58676 | 36454 ft | 492 kts | 279° |
| 2026-04-26 05:08 | 77.82874 | -32.90600 | 36454 ft | 492 kts | 278° |
| 2026-04-26 05:09 | 77.84048 | -33.22561 | 36446 ft | 492 kts | 278° |
| 2026-04-26 05:09 | 77.85186 | -33.54569 | 36447 ft | 493 kts | 278° |
| 2026-04-26 05:10 | 77.86288 | -33.86694 | 36446 ft | 493 kts | 278° |
| 2026-04-26 05:10 | 77.87354 | -34.18893 | 36441 ft | 494 kts | 277° |
| 2026-04-26 05:11 | 77.88387 | -34.51267 | 36441 ft | 494 kts | 277° |
| 2026-04-26 05:11 | 77.89373 | -34.83428 | 36441 ft | 493 kts | 277° |
| 2026-04-26 05:12 | 77.90328 | -35.15818 | 36430 ft | 493 kts | 277° |
| 2026-04-26 05:12 | 77.91246 | -35.48255 | 36430 ft | 493 kts | 276° |
| 2026-04-26 05:13 | 77.92125 | -35.80726 | 36433 ft | 493 kts | 276° |
| 2026-04-26 05:13 | 77.92966 | -36.13238 | 36422 ft | 494 kts | 276° |
| 2026-04-26 05:14 | 77.93769 | -36.45765 | 36421 ft | 495 kts | 276° |
| 2026-04-26 05:14 | 77.94541 | -36.78614 | 36420 ft | 495 kts | 275° |
| 2026-04-26 05:15 | 77.95273 | -37.11430 | 36414 ft | 495 kts | 275° |
| 2026-04-26 05:15 | 77.95960 | -37.44010 | 36413 ft | 495 kts | 275° |
| 2026-04-26 05:16 | 77.96615 | -37.76906 | 36414 ft | 495 kts | 274° |
| 2026-04-26 05:16 | 77.97230 | -38.09754 | 36400 ft | 494 kts | 274° |
| 2026-04-26 05:17 | 77.97807 | -38.42660 | 36404 ft | 495 kts | 274° |
| 2026-04-26 05:17 | 77.98342 | -38.75348 | 36403 ft | 495 kts | 274° |
| 2026-04-26 05:18 | 77.98842 | -39.08342 | 36392 ft | 496 kts | 274° |
| 2026-04-26 05:18 | 77.99305 | -39.41374 | 36392 ft | 496 kts | 273° |
| 2026-04-26 05:19 | 77.99729 | -39.74428 | 36391 ft | 496 kts | 273° |
| 2026-04-26 05:19 | 77.99898 | -40.07559 | 36391 ft | 495 kts | 267° |
| 2026-04-26 05:20 | 77.99560 | -40.40664 | 36386 ft | 495 kts | 266° |
| 2026-04-26 05:20 | 77.99113 | -40.73713 | 36378 ft | 495 kts | 265° |
| 2026-04-26 05:21 | 77.98622 | -41.06670 | 36378 ft | 495 kts | 265° |
| 2026-04-26 05:21 | 77.98103 | -41.39410 | 36374 ft | 495 kts | 265° |
| 2026-04-26 05:22 | 77.97545 | -41.72384 | 36368 ft | 496 kts | 265° |
| 2026-04-26 05:22 | 77.96948 | -42.05423 | 36368 ft | 496 kts | 264° |
| 2026-04-26 05:23 | 77.96314 | -42.38332 | 36369 ft | 496 kts | 264° |
| 2026-04-26 05:23 | 77.95641 | -42.71215 | 36354 ft | 496 kts | 264° |
| 2026-04-26 05:24 | 77.94929 | -43.04097 | 36355 ft | 496 kts | 263° |
| 2026-04-26 05:24 | 77.94179 | -43.36914 | 36349 ft | 496 kts | 263° |
| 2026-04-26 05:25 | 77.93389 | -43.69728 | 36341 ft | 497 kts | 263° |
| 2026-04-26 05:25 | 77.92567 | -44.02291 | 36340 ft | 497 kts | 263° |
| 2026-04-26 05:26 | 77.91700 | -44.35036 | 36334 ft | 497 kts | 262° |
| 2026-04-26 05:26 | 77.90795 | -44.67752 | 36335 ft | 497 kts | 262° |
| 2026-04-26 05:27 | 77.89850 | -45.00456 | 36339 ft | 498 kts | 262° |
| 2026-04-26 05:27 | 77.88869 | -45.33071 | 36334 ft | 497 kts | 262° |
| 2026-04-26 05:28 | 77.87849 | -45.65650 | 36341 ft | 498 kts | 261° |
| 2026-04-26 05:28 | 77.86790 | -45.98197 | 36332 ft | 498 kts | 261° |
| 2026-04-26 05:29 | 77.85693 | -46.30666 | 36335 ft | 498 kts | 261° |
| 2026-04-26 05:29 | 77.84568 | -46.62829 | 36328 ft | 498 kts | 260° |
| 2026-04-26 05:30 | 77.83396 | -46.95216 | 36321 ft | 498 kts | 260° |
| 2026-04-26 05:30 | 77.82186 | -47.27530 | 36331 ft | 498 kts | 260° |
| 2026-04-26 05:31 | 77.80937 | -47.59829 | 36337 ft | 499 kts | 259° |
| 2026-04-26 05:31 | 77.79648 | -47.92117 | 36324 ft | 499 kts | 259° |
| 2026-04-26 05:32 | 77.78322 | -48.24325 | 36324 ft | 499 kts | 259° |
| 2026-04-26 05:32 | 77.76966 | -48.56273 | 36328 ft | 499 kts | 259° |
| 2026-04-26 05:33 | 77.75567 | -48.88308 | 36311 ft | 499 kts | 258° |
| 2026-04-26 05:33 | 77.74129 | -49.20327 | 36315 ft | 499 kts | 258° |
| 2026-04-26 05:34 | 77.72654 | -49.52245 | 36312 ft | 499 kts | 258° |
| 2026-04-26 05:34 | 77.71143 | -49.84081 | 36307 ft | 499 kts | 257° |
| 2026-04-26 05:35 | 77.69596 | -50.15833 | 36311 ft | 500 kts | 257° |
| 2026-04-26 05:35 | 77.68007 | -50.47591 | 36296 ft | 500 kts | 257° |
| 2026-04-26 05:36 | 77.66381 | -50.79290 | 36304 ft | 500 kts | 257° |
| 2026-04-26 05:36 | 77.64721 | -51.10868 | 36305 ft | 500 kts | 256° |
| 2026-04-26 05:37 | 77.63022 | -51.42393 | 36292 ft | 500 kts | 256° |
| 2026-04-26 05:37 | 77.61300 | -51.73596 | 36293 ft | 501 kts | 256° |
| 2026-04-26 05:38 | 77.59530 | -52.04941 | 36290 ft | 501 kts | 256° |
| 2026-04-26 05:38 | 77.57724 | -52.36208 | 36282 ft | 501 kts | 255° |
| 2026-04-26 05:39 | 77.55878 | -52.67443 | 36278 ft | 501 kts | 255° |
| 2026-04-26 05:39 | 77.53993 | -52.98647 | 36277 ft | 502 kts | 255° |
| 2026-04-26 05:40 | 77.52078 | -53.29662 | 36281 ft | 501 kts | 255° |
| 2026-04-26 05:40 | 77.50125 | -53.60621 | 36278 ft | 501 kts | 254° |
| 2026-04-26 05:41 | 77.48138 | -53.91466 | 36274 ft | 502 kts | 254° |
| 2026-04-26 05:41 | 77.46123 | -54.22105 | 36284 ft | 502 kts | 253° |
| 2026-04-26 05:42 | 77.44064 | -54.52784 | 36274 ft | 503 kts | 253° |
| 2026-04-26 05:42 | 77.42311 | -54.78437 | 36264 ft | 503 kts | 253° |
| 2026-04-26 05:43 | 77.40196 | -55.08822 | 36277 ft | 503 kts | 253° |
| 2026-04-26 05:43 | 77.38035 | -55.39273 | 36273 ft | 503 kts | 252° |
| 2026-04-26 05:44 | 77.35838 | -55.69645 | 36266 ft | 503 kts | 252° |
| 2026-04-26 05:44 | 77.33612 | -55.99853 | 36273 ft | 502 kts | 252° |
| 2026-04-26 05:45 | 77.31350 | -56.29979 | 36280 ft | 503 kts | 252° |
| 2026-04-26 05:45 | 77.29049 | -56.60067 | 36281 ft | 503 kts | 252° |
| 2026-04-26 05:46 | 77.26717 | -56.90004 | 36279 ft | 504 kts | 252° |
| 2026-04-26 05:46 | 77.24355 | -57.19775 | 36288 ft | 504 kts | 251° |
| 2026-04-26 05:47 | 77.21951 | -57.49555 | 36285 ft | 504 kts | 251° |
| 2026-04-26 05:47 | 77.19516 | -57.79200 | 36287 ft | 504 kts | 251° |
| 2026-04-26 05:48 | 77.17046 | -58.08751 | 36290 ft | 504 kts | 250° |
| 2026-04-26 05:48 | 77.14541 | -58.38232 | 36288 ft | 505 kts | 251° |
| 2026-04-26 05:49 | 77.10717 | -58.82294 | 36295 ft | 506 kts | 250° |
| 2026-04-26 05:50 | 77.08124 | -59.11582 | 36293 ft | 505 kts | 250° |
| 2026-04-26 05:50 | 77.05516 | -59.40504 | 36310 ft | 505 kts | 250° |
| 2026-04-26 05:51 | 77.02859 | -59.69507 | 36311 ft | 506 kts | 249° |
| 2026-04-26 05:51 | 77.00168 | -59.98408 | 36310 ft | 506 kts | 249° |
| 2026-04-26 05:52 | 76.97715 | -60.27570 | 36312 ft | 505 kts | 255° |
| 2026-04-26 05:52 | 76.95577 | -60.57311 | 36310 ft | 506 kts | 255° |
| 2026-04-26 05:53 | 76.93375 | -60.86939 | 36300 ft | 506 kts | 253° |
| 2026-04-26 05:53 | 76.91075 | -61.16299 | 36307 ft | 505 kts | 252° |
| 2026-04-26 05:54 | 76.88736 | -61.45294 | 36306 ft | 505 kts | 252° |
| 2026-04-26 05:54 | 76.86352 | -61.74349 | 36306 ft | 505 kts | 252° |
| 2026-04-26 05:55 | 76.83931 | -62.03387 | 36307 ft | 505 kts | 252° |
| 2026-04-26 05:55 | 76.81482 | -62.32278 | 36313 ft | 505 kts | 251° |
| 2026-04-26 05:56 | 76.79002 | -62.61073 | 36311 ft | 506 kts | 251° |
| 2026-04-26 05:56 | 76.76487 | -62.89813 | 36309 ft | 505 kts | 251° |
| 2026-04-26 05:57 | 76.73943 | -63.18372 | 36322 ft | 505 kts | 251° |
| 2026-04-26 05:57 | 76.71374 | -63.46738 | 36313 ft | 502 kts | 250° |
| 2026-04-26 05:58 | 76.68799 | -63.74748 | 36314 ft | 502 kts | 250° |
| 2026-04-26 05:58 | 76.66179 | -64.02812 | 36330 ft | 502 kts | 250° |
| 2026-04-26 05:59 | 76.63525 | -64.30781 | 36313 ft | 503 kts | 250° |
| 2026-04-26 05:59 | 76.60838 | -64.58661 | 36310 ft | 503 kts | 249° |
| 2026-04-26 06:00 | 76.58137 | -64.86281 | 36312 ft | 503 kts | 249° |
| 2026-04-26 06:00 | 76.55392 | -65.13934 | 36321 ft | 503 kts | 249° |
| 2026-04-26 06:01 | 76.52608 | -65.41570 | 36308 ft | 503 kts | 249° |
| 2026-04-26 06:01 | 76.49806 | -65.68973 | 36300 ft | 501 kts | 249° |
| 2026-04-26 06:02 | 76.46978 | -65.96211 | 36326 ft | 501 kts | 249° |
| 2026-04-26 06:02 | 76.44138 | -66.23193 | 36322 ft | 502 kts | 249° |
| 2026-04-26 06:03 | 76.41233 | -66.50376 | 36309 ft | 504 kts | 249° |
| 2026-04-26 06:03 | 76.38298 | -66.77442 | 36335 ft | 504 kts | 248° |
| 2026-04-26 06:04 | 76.35336 | -67.04394 | 36336 ft | 504 kts | 248° |
| 2026-04-26 06:04 | 76.32341 | -67.31292 | 36325 ft | 505 kts | 247° |
| 2026-04-26 06:05 | 76.29325 | -67.57990 | 36347 ft | 504 kts | 247° |
| 2026-04-26 06:05 | 76.26311 | -67.84281 | 36347 ft | 500 kts | 247° |
| 2026-04-26 06:06 | 76.23243 | -68.10695 | 36326 ft | 499 kts | 246° |
| 2026-04-26 06:06 | 76.20192 | -68.36626 | 36328 ft | 498 kts | 246° |
| 2026-04-26 06:07 | 76.17097 | -68.62586 | 36329 ft | 498 kts | 246° |
| 2026-04-26 06:07 | 76.13973 | -68.88442 | 36331 ft | 499 kts | 246° |
| 2026-04-26 06:08 | 76.10840 | -69.14043 | 36334 ft | 499 kts | 245° |
| 2026-04-26 06:08 | 76.07661 | -69.39676 | 36366 ft | 499 kts | 245° |
| 2026-04-26 06:09 | 76.04456 | -69.65193 | 36350 ft | 498 kts | 245° |
| 2026-04-26 06:09 | 76.01227 | -69.90582 | 36362 ft | 497 kts | 245° |
| 2026-04-26 06:10 | 75.97878 | -70.15547 | 36392 ft | 499 kts | 241° |
| 2026-04-26 06:10 | 75.94020 | -70.39401 | 36394 ft | 500 kts | 238° |
| 2026-04-26 06:11 | 75.90087 | -70.63031 | 36397 ft | 500 kts | 239° |
| 2026-04-26 06:11 | 75.86240 | -70.86507 | 36422 ft | 499 kts | 239° |
| 2026-04-26 06:12 | 75.82381 | -71.10116 | 36418 ft | 499 kts | 239° |
| 2026-04-26 06:12 | 75.78506 | -71.33608 | 36418 ft | 500 kts | 239° |
| 2026-04-26 06:13 | 75.74608 | -71.56956 | 36424 ft | 499 kts | 239° |
| 2026-04-26 06:13 | 75.70683 | -71.80177 | 36447 ft | 498 kts | 238° |
| 2026-04-26 06:14 | 75.66760 | -72.03128 | 36454 ft | 496 kts | 238° |
| 2026-04-26 06:14 | 75.62818 | -72.25953 | 36455 ft | 496 kts | 238° |
| 2026-04-26 06:15 | 75.58859 | -72.48626 | 36472 ft | 496 kts | 238° |
| 2026-04-26 06:15 | 75.54873 | -72.71204 | 36481 ft | 496 kts | 237° |
| 2026-04-26 06:16 | 75.50865 | -72.93661 | 36479 ft | 496 kts | 237° |
| 2026-04-26 06:16 | 75.46833 | -73.16016 | 36492 ft | 495 kts | 237° |
| 2026-04-26 06:17 | 75.42825 | -73.38002 | 36503 ft | 495 kts | 237° |
| 2026-04-26 06:17 | 75.38763 | -73.60056 | 36503 ft | 495 kts | 237° |
| 2026-04-26 06:18 | 75.34675 | -73.82013 | 36514 ft | 495 kts | 237° |
| 2026-04-26 06:18 | 75.30571 | -74.03830 | 36514 ft | 495 kts | 236° |
| 2026-04-26 06:19 | 75.26443 | -74.25546 | 36524 ft | 495 kts | 236° |
| 2026-04-26 06:19 | 75.22294 | -74.47144 | 36531 ft | 494 kts | 236° |
| 2026-04-26 06:20 | 75.18145 | -74.68518 | 36529 ft | 494 kts | 236° |
| 2026-04-26 06:20 | 75.13975 | -74.89793 | 36541 ft | 494 kts | 236° |
| 2026-04-26 06:21 | 75.09785 | -75.10951 | 36541 ft | 494 kts | 235° |
| 2026-04-26 06:21 | 75.05566 | -75.32039 | 36541 ft | 494 kts | 235° |
| 2026-04-26 06:22 | 75.01360 | -75.52851 | 36550 ft | 494 kts | 235° |
| 2026-04-26 06:22 | 74.97112 | -75.73661 | 36549 ft | 492 kts | 235° |
| 2026-04-26 06:23 | 74.92865 | -75.94257 | 36561 ft | 491 kts | 235° |
| 2026-04-26 06:23 | 74.88603 | -76.14731 | 36572 ft | 490 kts | 234° |
| 2026-04-26 06:24 | 74.84328 | -76.35069 | 36583 ft | 491 kts | 234° |
| 2026-04-26 06:24 | 74.80033 | -76.55302 | 36591 ft | 491 kts | 234° |
| 2026-04-26 06:25 | 74.75707 | -76.75481 | 36594 ft | 491 kts | 234° |
| 2026-04-26 06:25 | 74.71400 | -76.95377 | 36596 ft | 491 kts | 234° |
| 2026-04-26 06:26 | 74.67041 | -77.15322 | 36606 ft | 491 kts | 234° |
| 2026-04-26 06:26 | 74.62683 | -77.35071 | 36606 ft | 489 kts | 234° |
| 2026-04-26 06:27 | 74.58305 | -77.54728 | 36600 ft | 489 kts | 233° |
| 2026-04-26 06:27 | 74.53926 | -77.74200 | 36606 ft | 488 kts | 233° |
| 2026-04-26 06:28 | 74.49549 | -77.93486 | 36607 ft | 488 kts | 233° |
| 2026-04-26 06:28 | 74.45137 | -78.12742 | 36614 ft | 488 kts | 233° |
| 2026-04-26 06:29 | 74.40705 | -78.31910 | 36613 ft | 488 kts | 233° |
| 2026-04-26 06:29 | 74.36252 | -78.50989 | 36613 ft | 488 kts | 232° |
| 2026-04-26 06:30 | 74.31790 | -78.69927 | 36624 ft | 489 kts | 232° |
| 2026-04-26 06:30 | 74.27306 | -78.88789 | 36624 ft | 489 kts | 232° |
| 2026-04-26 06:31 | 74.22799 | -79.07573 | 36622 ft | 489 kts | 232° |
| 2026-04-26 06:31 | 74.18287 | -79.26208 | 36634 ft | 488 kts | 232° |
| 2026-04-26 06:32 | 74.13783 | -79.44638 | 36631 ft | 488 kts | 232° |
| 2026-04-26 06:32 | 74.09241 | -79.63061 | 36629 ft | 488 kts | 232° |
| 2026-04-26 06:33 | 74.05430 | -79.78393 | 36636 ft | 486 kts | 232° |
| 2026-04-26 06:33 | 74.00882 | -79.96503 | 36641 ft | 486 kts | 231° |
| 2026-04-26 06:34 | 73.96010 | -80.13365 | 36657 ft | 488 kts | 227° |
| 2026-04-26 06:34 | 73.90992 | -80.29884 | 36656 ft | 488 kts | 226° |
| 2026-04-26 06:35 | 73.85942 | -80.46281 | 36680 ft | 489 kts | 226° |
| 2026-04-26 06:35 | 73.80889 | -80.62586 | 36680 ft | 489 kts | 226° |
| 2026-04-26 06:36 | 73.75838 | -80.78774 | 36645 ft | 487 kts | 226° |
| 2026-04-26 06:36 | 73.70787 | -80.94835 | 36691 ft | 485 kts | 226° |
| 2026-04-26 06:37 | 73.65744 | -81.10738 | 36699 ft | 485 kts | 226° |
| 2026-04-26 06:37 | 73.60678 | -81.26580 | 36703 ft | 485 kts | 225° |
| 2026-04-26 06:38 | 73.55648 | -81.42180 | 36702 ft | 485 kts | 225° |
| 2026-04-26 06:38 | 73.50556 | -81.57835 | 36687 ft | 485 kts | 225° |
| 2026-04-26 06:39 | 73.45452 | -81.73398 | 36706 ft | 484 kts | 225° |
| 2026-04-26 06:39 | 73.40365 | -81.88783 | 36708 ft | 482 kts | 225° |
| 2026-04-26 06:40 | 73.35271 | -82.04067 | 36711 ft | 482 kts | 225° |
| 2026-04-26 06:40 | 73.30173 | -82.19242 | 36713 ft | 482 kts | 225° |
| 2026-04-26 06:41 | 73.25092 | -82.34242 | 36712 ft | 482 kts | 225° |
| 2026-04-26 06:41 | 73.19964 | -82.49258 | 36725 ft | 482 kts | 225° |
| 2026-04-26 06:42 | 73.14833 | -82.64162 | 36714 ft | 482 kts | 225° |
| 2026-04-26 06:42 | 73.09702 | -82.78946 | 36737 ft | 480 kts | 224° |
| 2026-04-26 06:43 | 73.04575 | -82.93606 | 36737 ft | 479 kts | 224° |
| 2026-04-26 06:43 | 72.99434 | -83.08192 | 36756 ft | 480 kts | 224° |
| 2026-04-26 06:44 | 72.94280 | -83.22696 | 36761 ft | 480 kts | 224° |
| 2026-04-26 06:44 | 72.89158 | -83.36998 | 36760 ft | 480 kts | 224° |
| 2026-04-26 06:45 | 72.83982 | -83.51339 | 36735 ft | 479 kts | 224° |
| 2026-04-26 06:45 | 72.78815 | -83.65540 | 36773 ft | 477 kts | 224° |
| 2026-04-26 06:46 | 72.73667 | -83.79581 | 36774 ft | 476 kts | 224° |
| 2026-04-26 06:46 | 72.68498 | -83.93579 | 36773 ft | 476 kts | 223° |
| 2026-04-26 06:47 | 72.63330 | -84.07464 | 36774 ft | 476 kts | 223° |
| 2026-04-26 06:47 | 72.58184 | -84.21185 | 36779 ft | 476 kts | 223° |
| 2026-04-26 06:48 | 72.52999 | -84.34903 | 36781 ft | 476 kts | 223° |
| 2026-04-26 06:48 | 72.47799 | -84.48557 | 36782 ft | 475 kts | 223° |
| 2026-04-26 06:49 | 72.42617 | -84.62062 | 36781 ft | 473 kts | 223° |
| 2026-04-26 06:49 | 72.37425 | -84.75498 | 36787 ft | 473 kts | 223° |
| 2026-04-26 06:50 | 72.32226 | -84.88850 | 36792 ft | 473 kts | 223° |
| 2026-04-26 06:50 | 72.27044 | -85.02059 | 36791 ft | 474 kts | 223° |
| 2026-04-26 06:51 | 72.21833 | -85.15243 | 36790 ft | 474 kts | 223° |
| 2026-04-26 06:51 | 72.14008 | -85.34856 | 36790 ft | 471 kts | 222° |
| 2026-04-26 06:52 | 72.08807 | -85.47774 | 36791 ft | 470 kts | 222° |
| 2026-04-26 06:52 | 72.03607 | -85.60606 | 36791 ft | 470 kts | 222° |
| 2026-04-26 06:53 | 71.98383 | -85.73399 | 36791 ft | 470 kts | 222° |
| 2026-04-26 06:53 | 71.93163 | -85.86090 | 36797 ft | 470 kts | 222° |
| 2026-04-26 06:54 | 71.87930 | -85.98720 | 36797 ft | 470 kts | 221° |
| 2026-04-26 06:54 | 71.82690 | -86.11273 | 36797 ft | 469 kts | 222° |
| 2026-04-26 06:55 | 71.77504 | -86.23610 | 36796 ft | 467 kts | 221° |
| 2026-04-26 06:55 | 71.72272 | -86.35976 | 36806 ft | 467 kts | 221° |
| 2026-04-26 06:56 | 71.67039 | -86.48258 | 36807 ft | 467 kts | 221° |
| 2026-04-26 06:56 | 71.61795 | -86.60476 | 36808 ft | 467 kts | 221° |
| 2026-04-26 06:57 | 71.56548 | -86.72615 | 36814 ft | 467 kts | 221° |
| 2026-04-26 06:57 | 71.51300 | -86.84673 | 36817 ft | 467 kts | 221° |
| 2026-04-26 06:58 | 71.46049 | -86.96651 | 36830 ft | 465 kts | 221° |
| 2026-04-26 06:58 | 71.40808 | -87.08530 | 36830 ft | 465 kts | 221° |
| 2026-04-26 06:59 | 71.35555 | -87.20355 | 36830 ft | 465 kts | 221° |
| 2026-04-26 06:59 | 71.30300 | -87.32104 | 36830 ft | 465 kts | 220° |
| 2026-04-26 07:00 | 71.25029 | -87.43807 | 36837 ft | 465 kts | 220° |
| 2026-04-26 07:00 | 71.19791 | -87.55356 | 36838 ft | 465 kts | 220° |
| 2026-04-26 07:01 | 71.14505 | -87.66933 | 36835 ft | 465 kts | 220° |
| 2026-04-26 07:01 | 71.09211 | -87.78453 | 36821 ft | 465 kts | 220° |
| 2026-04-26 07:02 | 71.03918 | -87.89892 | 36840 ft | 465 kts | 220° |
| 2026-04-26 07:02 | 70.98624 | -88.01254 | 36843 ft | 464 kts | 220° |
| 2026-04-26 07:03 | 70.93308 | -88.12591 | 36843 ft | 464 kts | 219° |
| 2026-04-26 07:03 | 70.88030 | -88.23771 | 36850 ft | 464 kts | 219° |
| 2026-04-26 07:04 | 70.82717 | -88.34948 | 36848 ft | 462 kts | 219° |
| 2026-04-26 07:04 | 70.77435 | -88.45987 | 36846 ft | 461 kts | 219° |
| 2026-04-26 07:05 | 70.72142 | -88.56981 | 36851 ft | 461 kts | 219° |
| 2026-04-26 07:05 | 70.66850 | -88.67903 | 36866 ft | 461 kts | 219° |
| 2026-04-26 07:06 | 70.61544 | -88.78781 | 36866 ft | 461 kts | 219° |
| 2026-04-26 07:06 | 70.56265 | -88.89535 | 36849 ft | 461 kts | 219° |
| 2026-04-26 07:07 | 70.50950 | -89.00289 | 36849 ft | 460 kts | 219° |
| 2026-04-26 07:07 | 70.45662 | -89.10917 | 36853 ft | 457 kts | 219° |
| 2026-04-26 07:08 | 70.40385 | -89.21462 | 36856 ft | 456 kts | 219° |
| 2026-04-26 07:08 | 70.35102 | -89.31954 | 36856 ft | 456 kts | 219° |
| 2026-04-26 07:09 | 70.29806 | -89.42404 | 36857 ft | 457 kts | 219° |
| 2026-04-26 07:09 | 70.24546 | -89.52718 | 36856 ft | 457 kts | 219° |
| 2026-04-26 07:11 | 70.11318 | -89.78363 | 36853 ft | 453 kts | 219° |
| 2026-04-26 07:11 | 70.06045 | -89.88482 | 36854 ft | 453 kts | 218° |
| 2026-04-26 07:12 | 70.00748 | -89.98426 | 36848 ft | 455 kts | 215° |
| 2026-04-26 07:12 | 69.94982 | -90.06424 | 36856 ft | 460 kts | 209° |
| 2026-04-26 07:13 | 69.89089 | -90.13776 | 36857 ft | 461 kts | 208° |
| 2026-04-26 07:13 | 69.83186 | -90.20999 | 36854 ft | 460 kts | 208° |
| 2026-04-26 07:14 | 69.77308 | -90.28193 | 36854 ft | 457 kts | 209° |
| 2026-04-26 07:14 | 69.71490 | -90.35313 | 36852 ft | 457 kts | 209° |
| 2026-04-26 07:15 | 69.65632 | -90.42450 | 36856 ft | 457 kts | 208° |
| 2026-04-26 07:15 | 69.59768 | -90.49548 | 36855 ft | 457 kts | 208° |
| 2026-04-26 07:16 | 69.53904 | -90.56600 | 36854 ft | 457 kts | 208° |
| 2026-04-26 07:16 | 69.48046 | -90.63599 | 36851 ft | 454 kts | 208° |
| 2026-04-26 07:17 | 69.42229 | -90.70506 | 36855 ft | 452 kts | 208° |
| 2026-04-26 07:17 | 69.36434 | -90.77357 | 36851 ft | 452 kts | 208° |
| 2026-04-26 07:18 | 69.30655 | -90.84148 | 36854 ft | 452 kts | 208° |
| 2026-04-26 07:18 | 69.24834 | -90.90948 | 36853 ft | 452 kts | 208° |
| 2026-04-26 07:19 | 69.19027 | -90.97690 | 36821 ft | 452 kts | 208° |
| 2026-04-26 07:19 | 69.13231 | -91.04371 | 36852 ft | 448 kts | 208° |
| 2026-04-26 07:20 | 69.07459 | -91.10994 | 36849 ft | 448 kts | 208° |
| 2026-04-26 07:20 | 69.01690 | -91.17584 | 36845 ft | 448 kts | 208° |
| 2026-04-26 07:21 | 68.95905 | -91.24151 | 36840 ft | 448 kts | 208° |
| 2026-04-26 07:21 | 68.91094 | -91.29582 | 36842 ft | 448 kts | 208° |
| 2026-04-26 07:22 | 68.85314 | -91.36072 | 36780 ft | 448 kts | 208° |
| 2026-04-26 07:22 | 68.79552 | -91.42498 | 36834 ft | 444 kts | 208° |
| 2026-04-26 07:23 | 68.73833 | -91.48844 | 36837 ft | 442 kts | 208° |
| 2026-04-26 07:23 | 68.68118 | -91.55161 | 36832 ft | 442 kts | 208° |
| 2026-04-26 07:24 | 68.62404 | -91.61440 | 36824 ft | 442 kts | 208° |
| 2026-04-26 07:24 | 68.56720 | -91.67649 | 36823 ft | 442 kts | 208° |
| 2026-04-26 07:25 | 68.50995 | -91.73868 | 36788 ft | 442 kts | 208° |
| 2026-04-26 07:25 | 68.45276 | -91.80045 | 36828 ft | 441 kts | 208° |
| 2026-04-26 07:26 | 68.39589 | -91.86155 | 36824 ft | 441 kts | 208° |
| 2026-04-26 07:26 | 68.33889 | -91.92247 | 36814 ft | 441 kts | 208° |
| 2026-04-26 07:27 | 68.28178 | -91.98317 | 36789 ft | 441 kts | 207° |
| 2026-04-26 07:27 | 68.22419 | -92.04406 | 36793 ft | 441 kts | 207° |
| 2026-04-26 07:28 | 68.16738 | -92.10380 | 36764 ft | 441 kts | 207° |
| 2026-04-26 07:28 | 68.11027 | -92.16353 | 36797 ft | 441 kts | 207° |
| 2026-04-26 07:29 | 68.05308 | -92.22302 | 36800 ft | 441 kts | 207° |
| 2026-04-26 07:29 | 67.99580 | -92.28229 | 36795 ft | 441 kts | 207° |
| 2026-04-26 07:30 | 67.93858 | -92.34118 | 36794 ft | 441 kts | 207° |
| 2026-04-26 07:30 | 67.88135 | -92.39978 | 36792 ft | 441 kts | 207° |
| 2026-04-26 07:31 | 67.82413 | -92.45805 | 36791 ft | 441 kts | 207° |
| 2026-04-26 07:31 | 67.76689 | -92.51605 | 36787 ft | 441 kts | 207° |
| 2026-04-26 07:32 | 67.70957 | -92.57382 | 36790 ft | 441 kts | 207° |
| 2026-04-26 07:32 | 67.65263 | -92.63091 | 36785 ft | 441 kts | 207° |
| 2026-04-26 07:33 | 67.59528 | -92.68812 | 36778 ft | 441 kts | 207° |
| 2026-04-26 07:33 | 67.53787 | -92.74507 | 36779 ft | 441 kts | 207° |
| 2026-04-26 07:34 | 67.48044 | -92.80177 | 36772 ft | 441 kts | 206° |
| 2026-04-26 07:34 | 67.42300 | -92.85817 | 36773 ft | 441 kts | 206° |
| 2026-04-26 07:35 | 67.36549 | -92.91435 | 36769 ft | 441 kts | 206° |
| 2026-04-26 07:35 | 67.30833 | -92.96990 | 36761 ft | 441 kts | 206° |
| 2026-04-26 07:36 | 67.25077 | -93.02555 | 36760 ft | 441 kts | 206° |
| 2026-04-26 07:36 | 67.19322 | -93.08091 | 36761 ft | 441 kts | 206° |
| 2026-04-26 07:37 | 67.13561 | -93.13608 | 36755 ft | 441 kts | 205° |
| 2026-04-26 07:37 | 67.07794 | -93.19097 | 36755 ft | 441 kts | 205° |
| 2026-04-26 07:38 | 67.02034 | -93.24553 | 36753 ft | 441 kts | 205° |
| 2026-04-26 07:38 | 66.96311 | -93.29948 | 36747 ft | 441 kts | 205° |
| 2026-04-26 07:39 | 66.90547 | -93.35354 | 36751 ft | 441 kts | 205° |
| 2026-04-26 07:39 | 66.84772 | -93.40744 | 36704 ft | 441 kts | 204° |
| 2026-04-26 07:40 | 66.78989 | -93.46115 | 36744 ft | 443 kts | 204° |
| 2026-04-26 07:40 | 66.73205 | -93.51458 | 36746 ft | 443 kts | 204° |
| 2026-04-26 07:41 | 66.67405 | -93.56787 | 36737 ft | 443 kts | 204° |
| 2026-04-26 07:41 | 66.61649 | -93.62051 | 36732 ft | 443 kts | 204° |
| 2026-04-26 07:42 | 66.55855 | -93.67324 | 36728 ft | 443 kts | 204° |
| 2026-04-26 07:42 | 66.50057 | -93.72576 | 36717 ft | 444 kts | 203° |
| 2026-04-26 07:43 | 66.44225 | -93.77834 | 36724 ft | 446 kts | 203° |
| 2026-04-26 07:43 | 66.38378 | -93.83075 | 36722 ft | 446 kts | 203° |
| 2026-04-26 07:44 | 66.32532 | -93.88289 | 36714 ft | 446 kts | 203° |
| 2026-04-26 07:44 | 66.26677 | -93.93486 | 36715 ft | 446 kts | 203° |
| 2026-04-26 07:45 | 66.20866 | -93.98619 | 36715 ft | 446 kts | 203° |
| 2026-04-26 07:45 | 66.15010 | -94.03770 | 36716 ft | 448 kts | 202° |
| 2026-04-26 07:46 | 66.09130 | -94.08915 | 36704 ft | 449 kts | 202° |
| 2026-04-26 07:46 | 66.03236 | -94.14043 | 36695 ft | 449 kts | 202° |
| 2026-04-26 07:47 | 65.97348 | -94.19143 | 36700 ft | 449 kts | 202° |
| 2026-04-26 07:47 | 65.91457 | -94.24220 | 36709 ft | 449 kts | 202° |
| 2026-04-26 07:48 | 65.85552 | -94.29287 | 36689 ft | 449 kts | 201° |
| 2026-04-26 07:48 | 65.79623 | -94.34350 | 36693 ft | 452 kts | 201° |
| 2026-04-26 07:49 | 65.73675 | -94.39402 | 36692 ft | 452 kts | 201° |
| 2026-04-26 07:49 | 65.67724 | -94.44430 | 36691 ft | 453 kts | 201° |
| 2026-04-26 07:50 | 65.58833 | -94.51899 | 36685 ft | 452 kts | 201° |
| 2026-04-26 07:50 | 65.52886 | -94.56867 | 36671 ft | 452 kts | 201° |
| 2026-04-26 07:51 | 65.46924 | -94.61823 | 36681 ft | 453 kts | 201° |
| 2026-04-26 07:51 | 65.40970 | -94.66746 | 36676 ft | 453 kts | 200° |
| 2026-04-26 07:52 | 65.35001 | -94.71658 | 36680 ft | 453 kts | 200° |
| 2026-04-26 07:52 | 65.29041 | -94.76540 | 36680 ft | 453 kts | 200° |
| 2026-04-26 07:53 | 65.23080 | -94.81400 | 36673 ft | 453 kts | 200° |
| 2026-04-26 07:53 | 65.17117 | -94.86240 | 36674 ft | 451 kts | 200° |
| 2026-04-26 07:54 | 65.11222 | -94.90998 | 36666 ft | 450 kts | 200° |
| 2026-04-26 07:54 | 65.05273 | -94.95780 | 36671 ft | 450 kts | 200° |
| 2026-04-26 07:55 | 64.99361 | -95.00933 | 36674 ft | 453 kts | 206° |
| 2026-04-26 07:55 | 64.93736 | -95.07432 | 36669 ft | 454 kts | 207° |
| 2026-04-26 07:56 | 64.88114 | -95.14201 | 36652 ft | 454 kts | 207° |
| 2026-04-26 07:56 | 64.82501 | -95.20949 | 36658 ft | 451 kts | 207° |
| 2026-04-26 07:57 | 64.76903 | -95.27610 | 36658 ft | 450 kts | 207° |
| 2026-04-26 07:57 | 64.71307 | -95.34220 | 36658 ft | 450 kts | 207° |
| 2026-04-26 07:58 | 64.65746 | -95.40754 | 36658 ft | 450 kts | 207° |
| 2026-04-26 07:58 | 64.60145 | -95.47307 | 36653 ft | 450 kts | 207° |
| 2026-04-26 07:59 | 64.54541 | -95.53834 | 36653 ft | 450 kts | 207° |
| 2026-04-26 07:59 | 64.48936 | -95.60332 | 36645 ft | 450 kts | 207° |
| 2026-04-26 08:00 | 64.43306 | -95.66830 | 36633 ft | 453 kts | 206° |
| 2026-04-26 08:00 | 64.37643 | -95.73335 | 36623 ft | 455 kts | 206° |
| 2026-04-26 08:01 | 64.31962 | -95.79830 | 36617 ft | 455 kts | 206° |
| 2026-04-26 08:01 | 64.26290 | -95.86284 | 36615 ft | 455 kts | 206° |
| 2026-04-26 08:02 | 64.20644 | -95.92682 | 36614 ft | 454 kts | 206° |
| 2026-04-26 08:02 | 64.14991 | -95.99056 | 36616 ft | 452 kts | 206° |
| 2026-04-26 08:03 | 64.09339 | -96.05400 | 36615 ft | 452 kts | 206° |
| 2026-04-26 08:03 | 64.03684 | -96.11719 | 36614 ft | 452 kts | 206° |
| 2026-04-26 08:04 | 63.98035 | -96.18003 | 36619 ft | 452 kts | 206° |
| 2026-04-26 08:04 | 63.92374 | -96.24271 | 36607 ft | 452 kts | 206° |
| 2026-04-26 08:05 | 63.86707 | -96.30518 | 36601 ft | 454 kts | 205° |
| 2026-04-26 08:05 | 63.81025 | -96.36753 | 36594 ft | 455 kts | 205° |
| 2026-04-26 08:06 | 63.75327 | -96.42979 | 36592 ft | 455 kts | 205° |
| 2026-04-26 08:06 | 63.69627 | -96.49178 | 36582 ft | 455 kts | 205° |
| 2026-04-26 08:07 | 63.63911 | -96.55365 | 36577 ft | 455 kts | 205° |
| 2026-04-26 08:07 | 63.58246 | -96.61472 | 36573 ft | 455 kts | 204° |
| 2026-04-26 08:08 | 63.52515 | -96.67625 | 36568 ft | 458 kts | 204° |
| 2026-04-26 08:08 | 63.46744 | -96.73789 | 36572 ft | 459 kts | 204° |
| 2026-04-26 08:09 | 63.40971 | -96.79927 | 36556 ft | 459 kts | 204° |
| 2026-04-26 08:09 | 63.35192 | -96.86045 | 36561 ft | 459 kts | 204° |
| 2026-04-26 08:10 | 63.29416 | -96.92132 | 36547 ft | 459 kts | 204° |
| 2026-04-26 08:10 | 63.24616 | -96.97172 | 36546 ft | 460 kts | 203° |
| 2026-04-26 08:11 | 63.17858 | -97.04234 | 36529 ft | 462 kts | 203° |
| 2026-04-26 08:11 | 63.12033 | -97.10292 | 36530 ft | 463 kts | 203° |
| 2026-04-26 08:12 | 63.07169 | -97.15330 | 36532 ft | 463 kts | 203° |
| 2026-04-26 08:12 | 63.01339 | -97.21345 | 36516 ft | 463 kts | 203° |
| 2026-04-26 08:13 | 62.95487 | -97.27355 | 36515 ft | 463 kts | 203° |
| 2026-04-26 08:13 | 62.89679 | -97.33294 | 36503 ft | 464 kts | 202° |
| 2026-04-26 08:14 | 62.83818 | -97.39260 | 36504 ft | 465 kts | 202° |
| 2026-04-26 08:14 | 62.77959 | -97.45198 | 36486 ft | 465 kts | 202° |
| 2026-04-26 08:15 | 62.72063 | -97.51146 | 36486 ft | 467 kts | 202° |
| 2026-04-26 08:15 | 62.66165 | -97.57071 | 36476 ft | 467 kts | 202° |
| 2026-04-26 08:16 | 62.60261 | -97.62978 | 36483 ft | 468 kts | 202° |
| 2026-04-26 08:16 | 62.54331 | -97.68882 | 36466 ft | 469 kts | 202° |
| 2026-04-26 08:17 | 62.48391 | -97.74770 | 36466 ft | 470 kts | 202° |
| 2026-04-26 08:17 | 62.42443 | -97.80642 | 36456 ft | 469 kts | 202° |
| 2026-04-26 08:18 | 62.36498 | -97.86484 | 36453 ft | 469 kts | 202° |
| 2026-04-26 08:18 | 62.30592 | -97.92264 | 36458 ft | 469 kts | 202° |
| 2026-04-26 08:19 | 62.24646 | -97.98057 | 36447 ft | 470 kts | 201° |
| 2026-04-26 08:19 | 62.18676 | -98.03846 | 36449 ft | 471 kts | 201° |
| 2026-04-26 08:20 | 62.12677 | -98.09638 | 36433 ft | 473 kts | 201° |
| 2026-04-26 08:20 | 62.06674 | -98.15410 | 36433 ft | 473 kts | 201° |
| 2026-04-26 08:21 | 62.00713 | -98.21119 | 36423 ft | 473 kts | 201° |
| 2026-04-26 08:21 | 61.94675 | -98.26874 | 36434 ft | 473 kts | 201° |
| 2026-04-26 08:22 | 61.88705 | -98.32541 | 36413 ft | 473 kts | 201° |
| 2026-04-26 08:22 | 61.82693 | -98.38222 | 36416 ft | 473 kts | 201° |
| 2026-04-26 08:23 | 61.76679 | -98.43881 | 36408 ft | 473 kts | 201° |
| 2026-04-26 08:23 | 61.70662 | -98.49519 | 36406 ft | 473 kts | 201° |
| 2026-04-26 08:24 | 61.64639 | -98.55138 | 36405 ft | 473 kts | 201° |
| 2026-04-26 08:24 | 61.58600 | -98.60748 | 36396 ft | 474 kts | 201° |
| 2026-04-26 08:25 | 61.52557 | -98.66337 | 36398 ft | 474 kts | 201° |
| 2026-04-26 08:25 | 61.46519 | -98.71899 | 36398 ft | 474 kts | 201° |
| 2026-04-26 08:26 | 61.40476 | -98.77441 | 36390 ft | 474 kts | 200° |
| 2026-04-26 08:26 | 61.34469 | -98.82927 | 36390 ft | 474 kts | 200° |
| 2026-04-26 08:27 | 61.28414 | -98.88434 | 36388 ft | 474 kts | 200° |
| 2026-04-26 08:27 | 61.22364 | -98.93912 | 36378 ft | 474 kts | 200° |
| 2026-04-26 08:28 | 61.16321 | -98.99362 | 36383 ft | 474 kts | 200° |
| 2026-04-26 08:28 | 61.10259 | -99.04806 | 36383 ft | 474 kts | 200° |
| 2026-04-26 08:29 | 61.04198 | -99.10226 | 36369 ft | 475 kts | 200° |
| 2026-04-26 08:29 | 60.98129 | -99.15630 | 36359 ft | 475 kts | 200° |
| 2026-04-26 08:30 | 60.92096 | -99.20981 | 36359 ft | 475 kts | 200° |
| 2026-04-26 08:30 | 60.86027 | -99.26340 | 36358 ft | 475 kts | 200° |
| 2026-04-26 08:31 | 60.79956 | -99.31680 | 36354 ft | 475 kts | 200° |
| 2026-04-26 08:31 | 60.73879 | -99.37002 | 36343 ft | 475 kts | 200° |
| 2026-04-26 08:32 | 60.67814 | -99.42292 | 36345 ft | 474 kts | 200° |
| 2026-04-26 08:32 | 60.61740 | -99.47569 | 36333 ft | 474 kts | 200° |
| 2026-04-26 08:33 | 60.55669 | -99.52821 | 36348 ft | 474 kts | 200° |
| 2026-04-26 08:33 | 60.49590 | -99.58058 | 36330 ft | 475 kts | 200° |
| 2026-04-26 08:34 | 60.43493 | -99.63289 | 36330 ft | 475 kts | 200° |
| 2026-04-26 08:34 | 60.37400 | -99.68497 | 36324 ft | 475 kts | 200° |
| 2026-04-26 08:35 | 60.31312 | -99.73679 | 36324 ft | 474 kts | 200° |
| 2026-04-26 08:35 | 60.25227 | -99.78837 | 36316 ft | 474 kts | 200° |
| 2026-04-26 08:36 | 60.19143 | -99.83973 | 36318 ft | 474 kts | 200° |
| 2026-04-26 08:36 | 60.13080 | -99.89071 | 36305 ft | 474 kts | 200° |
| 2026-04-26 08:37 | 60.06999 | -99.94164 | 36317 ft | 475 kts | 199° |
| 2026-04-26 08:37 | 60.00903 | -99.99309 | 36304 ft | 477 kts | 202° |
| 2026-04-26 08:38 | 59.95059 | -100.05699 | 36300 ft | 481 kts | 206° |
| 2026-04-26 08:38 | 59.89274 | -100.12446 | 36295 ft | 482 kts | 207° |
| 2026-04-26 08:39 | 59.83490 | -100.19221 | 36295 ft | 482 kts | 207° |
| 2026-04-26 08:39 | 59.77693 | -100.25952 | 36295 ft | 482 kts | 207° |
| 2026-04-26 08:40 | 59.71898 | -100.32632 | 36282 ft | 482 kts | 206° |
| 2026-04-26 08:40 | 59.66082 | -100.39301 | 36280 ft | 483 kts | 206° |
| 2026-04-26 08:41 | 59.60304 | -100.45903 | 36281 ft | 483 kts | 206° |
| 2026-04-26 08:41 | 59.54482 | -100.52527 | 36281 ft | 483 kts | 206° |
| 2026-04-26 08:42 | 59.48651 | -100.59137 | 36268 ft | 484 kts | 206° |
| 2026-04-26 08:42 | 59.42802 | -100.65741 | 36278 ft | 484 kts | 206° |
| 2026-04-26 08:43 | 59.36958 | -100.72314 | 36262 ft | 483 kts | 206° |
| 2026-04-26 08:43 | 59.31144 | -100.78825 | 36262 ft | 483 kts | 205° |
| 2026-04-26 08:44 | 59.25305 | -100.85337 | 36254 ft | 483 kts | 205° |
| 2026-04-26 08:44 | 59.19423 | -100.91873 | 36255 ft | 483 kts | 205° |
| 2026-04-26 08:45 | 59.13608 | -100.98308 | 36279 ft | 483 kts | 205° |
| 2026-04-26 08:45 | 59.07756 | -101.04759 | 36246 ft | 483 kts | 206° |
| 2026-04-26 08:46 | 59.01910 | -101.11178 | 36245 ft | 482 kts | 206° |
| 2026-04-26 08:46 | 58.96068 | -101.17566 | 36240 ft | 482 kts | 206° |
| 2026-04-26 08:47 | 58.90215 | -101.23941 | 36243 ft | 482 kts | 206° |
| 2026-04-26 08:47 | 58.84363 | -101.30291 | 36237 ft | 482 kts | 205° |
| 2026-04-26 08:48 | 58.78549 | -101.36573 | 36240 ft | 482 kts | 206° |
| 2026-04-26 08:48 | 58.72702 | -101.42868 | 36234 ft | 481 kts | 206° |
| 2026-04-26 08:49 | 58.66853 | -101.49141 | 36233 ft | 481 kts | 206° |
| 2026-04-26 08:49 | 58.60994 | -101.55401 | 36222 ft | 482 kts | 206° |
| 2026-04-26 08:50 | 58.55131 | -101.61640 | 36229 ft | 482 kts | 206° |
| 2026-04-26 08:50 | 58.49266 | -101.67858 | 36229 ft | 481 kts | 206° |
| 2026-04-26 08:51 | 58.40464 | -101.77144 | 36219 ft | 481 kts | 206° |
| 2026-04-26 08:52 | 58.34647 | -101.83251 | 36219 ft | 481 kts | 206° |
| 2026-04-26 08:52 | 58.28779 | -101.89389 | 36219 ft | 481 kts | 206° |
| 2026-04-26 08:53 | 58.22907 | -101.95507 | 36212 ft | 481 kts | 205° |
| 2026-04-26 08:53 | 58.17031 | -102.01607 | 36212 ft | 481 kts | 205° |
| 2026-04-26 08:54 | 58.11156 | -102.07682 | 36204 ft | 481 kts | 205° |
| 2026-04-26 08:54 | 58.05291 | -102.13725 | 36203 ft | 481 kts | 205° |
| 2026-04-26 08:55 | 57.99417 | -102.19752 | 36195 ft | 481 kts | 205° |
| 2026-04-26 08:55 | 57.93527 | -102.25775 | 36194 ft | 481 kts | 205° |
| 2026-04-26 08:56 | 57.87679 | -102.31732 | 36204 ft | 481 kts | 205° |
| 2026-04-26 08:56 | 57.81786 | -102.37711 | 36187 ft | 481 kts | 205° |
| 2026-04-26 08:57 | 57.75895 | -102.43667 | 36186 ft | 481 kts | 205° |
| 2026-04-26 08:57 | 57.70007 | -102.49599 | 36178 ft | 481 kts | 205° |
| 2026-04-26 08:58 | 57.64107 | -102.55519 | 36179 ft | 481 kts | 205° |
| 2026-04-26 08:58 | 57.58205 | -102.61420 | 36170 ft | 481 kts | 205° |
| 2026-04-26 08:59 | 57.52337 | -102.67264 | 36175 ft | 480 kts | 205° |
| 2026-04-26 08:59 | 57.46444 | -102.73114 | 36164 ft | 480 kts | 205° |
| 2026-04-26 09:00 | 57.40551 | -102.78940 | 36163 ft | 481 kts | 205° |
| 2026-04-26 09:00 | 57.34644 | -102.84759 | 36152 ft | 481 kts | 205° |
| 2026-04-26 09:01 | 57.29717 | -102.89597 | 36159 ft | 481 kts | 205° |
| 2026-04-26 09:01 | 57.23812 | -102.95375 | 36154 ft | 481 kts | 205° |
| 2026-04-26 09:02 | 57.17892 | -103.01147 | 36147 ft | 480 kts | 205° |
| 2026-04-26 09:02 | 57.11982 | -103.06889 | 36130 ft | 480 kts | 205° |
| 2026-04-26 09:03 | 57.06057 | -103.12623 | 36132 ft | 480 kts | 205° |
| 2026-04-26 09:03 | 57.00130 | -103.18339 | 36123 ft | 481 kts | 205° |
| 2026-04-26 09:04 | 56.94200 | -103.24038 | 36136 ft | 481 kts | 205° |
| 2026-04-26 09:04 | 56.88303 | -103.29684 | 36118 ft | 480 kts | 205° |
| 2026-04-26 09:05 | 56.82377 | -103.35337 | 36118 ft | 480 kts | 205° |
| 2026-04-26 09:05 | 56.76443 | -103.40978 | 36111 ft | 480 kts | 205° |
| 2026-04-26 09:06 | 56.70520 | -103.46589 | 36105 ft | 480 kts | 205° |
| 2026-04-26 09:06 | 56.64589 | -103.52186 | 36109 ft | 480 kts | 205° |
| 2026-04-26 09:07 | 56.58690 | -103.57734 | 36102 ft | 480 kts | 205° |
| 2026-04-26 09:07 | 56.52763 | -103.63288 | 36099 ft | 480 kts | 205° |
| 2026-04-26 09:08 | 56.46832 | -103.68827 | 36088 ft | 480 kts | 205° |
| 2026-04-26 09:08 | 56.40892 | -103.74354 | 36092 ft | 479 kts | 205° |
| 2026-04-26 09:09 | 56.34956 | -103.79859 | 36079 ft | 479 kts | 205° |
| 2026-04-26 09:09 | 56.29026 | -103.85337 | 36080 ft | 479 kts | 205° |
| 2026-04-26 09:10 | 56.23126 | -103.90770 | 36075 ft | 479 kts | 205° |
| 2026-04-26 09:10 | 56.17196 | -103.96209 | 36075 ft | 479 kts | 204° |
| 2026-04-26 09:11 | 56.11259 | -104.01639 | 36071 ft | 479 kts | 204° |
| 2026-04-26 09:11 | 56.05309 | -104.07060 | 36069 ft | 479 kts | 204° |
| 2026-04-26 09:12 | 55.99368 | -104.12454 | 36066 ft | 479 kts | 205° |
| 2026-04-26 09:12 | 55.93449 | -104.17809 | 36064 ft | 479 kts | 204° |
| 2026-04-26 09:13 | 55.87500 | -104.23174 | 36055 ft | 479 kts | 204° |
| 2026-04-26 09:13 | 55.81539 | -104.28531 | 36056 ft | 480 kts | 204° |
| 2026-04-26 09:14 | 55.75574 | -104.33872 | 36051 ft | 481 kts | 204° |
| 2026-04-26 09:14 | 55.69594 | -104.39210 | 36057 ft | 480 kts | 204° |
| 2026-04-26 09:15 | 55.63622 | -104.44521 | 36047 ft | 480 kts | 204° |
| 2026-04-26 09:15 | 55.57682 | -104.49786 | 36047 ft | 480 kts | 204° |
| 2026-04-26 09:16 | 55.51715 | -104.55057 | 36032 ft | 480 kts | 204° |
| 2026-04-26 09:16 | 55.45729 | -104.60326 | 36035 ft | 480 kts | 204° |
| 2026-04-26 09:17 | 55.39759 | -104.65563 | 36036 ft | 480 kts | 205° |
| 2026-04-26 09:17 | 55.33773 | -104.70797 | 36034 ft | 480 kts | 205° |
| 2026-04-26 09:18 | 55.27795 | -104.76007 | 36036 ft | 480 kts | 204° |
| 2026-04-26 09:18 | 55.21816 | -104.81199 | 36036 ft | 480 kts | 204° |
| 2026-04-26 09:19 | 55.15826 | -104.86383 | 36028 ft | 479 kts | 204° |
| 2026-04-26 09:19 | 55.09878 | -104.91514 | 36041 ft | 479 kts | 204° |
| 2026-04-26 09:20 | 55.03884 | -104.96667 | 36036 ft | 480 kts | 204° |
| 2026-04-26 09:20 | 54.97804 | -105.01388 | 36009 ft | 479 kts | 199° |
| 2026-04-26 09:21 | 54.91557 | -105.05457 | 36011 ft | 479 kts | 198° |
| 2026-04-26 09:21 | 54.85295 | -105.09430 | 36018 ft | 479 kts | 198° |
| 2026-04-26 09:22 | 54.79042 | -105.13386 | 36028 ft | 478 kts | 199° |
| 2026-04-26 09:22 | 54.72805 | -105.17336 | 36032 ft | 477 kts | 199° |
| 2026-04-26 09:23 | 54.66575 | -105.21275 | 36031 ft | 477 kts | 199° |
| 2026-04-26 09:23 | 54.60373 | -105.25182 | 36030 ft | 477 kts | 199° |
| 2026-04-26 09:24 | 54.54087 | -105.29127 | 36032 ft | 478 kts | 199° |
| 2026-04-26 09:24 | 54.47870 | -105.33020 | 36030 ft | 477 kts | 199° |
| 2026-04-26 09:25 | 54.41631 | -105.36913 | 36028 ft | 477 kts | 199° |
| 2026-04-26 09:25 | 54.35397 | -105.40790 | 36027 ft | 477 kts | 199° |
| 2026-04-26 09:26 | 54.29147 | -105.44664 | 36027 ft | 477 kts | 199° |
| 2026-04-26 09:26 | 54.22907 | -105.48517 | 36023 ft | 476 kts | 199° |
| 2026-04-26 09:27 | 54.16677 | -105.52354 | 36023 ft | 475 kts | 199° |
| 2026-04-26 09:27 | 54.10454 | -105.56175 | 36020 ft | 475 kts | 199° |
| 2026-04-26 09:28 | 54.04273 | -105.59957 | 36020 ft | 475 kts | 199° |
| 2026-04-26 09:28 | 53.98052 | -105.63751 | 36017 ft | 475 kts | 199° |
| 2026-04-26 09:29 | 53.91832 | -105.67532 | 36015 ft | 474 kts | 199° |
| 2026-04-26 09:29 | 53.85636 | -105.71288 | 36015 ft | 473 kts | 199° |
| 2026-04-26 09:30 | 53.79432 | -105.75037 | 36018 ft | 473 kts | 199° |
| 2026-04-26 09:30 | 53.73224 | -105.78776 | 36018 ft | 473 kts | 199° |
| 2026-04-26 09:31 | 53.67031 | -105.82494 | 36012 ft | 473 kts | 200° |
| 2026-04-26 09:31 | 53.60831 | -105.86205 | 36010 ft | 472 kts | 200° |
| 2026-04-26 09:32 | 53.54639 | -105.89900 | 36012 ft | 472 kts | 200° |
| 2026-04-26 09:32 | 53.48483 | -105.93561 | 36010 ft | 472 kts | 200° |
| 2026-04-26 09:33 | 53.42293 | -105.97232 | 36001 ft | 472 kts | 200° |
| 2026-04-26 09:33 | 53.36093 | -106.00898 | 36005 ft | 472 kts | 200° |
| 2026-04-26 09:34 | 53.29895 | -106.04550 | 36003 ft | 472 kts | 200° |
| 2026-04-26 09:34 | 53.23684 | -106.08199 | 36005 ft | 472 kts | 200° |
| 2026-04-26 09:35 | 53.17487 | -106.11828 | 36004 ft | 473 kts | 200° |
| 2026-04-26 09:35 | 53.11314 | -106.15432 | 36004 ft | 472 kts | 200° |
| 2026-04-26 09:36 | 53.05110 | -106.19044 | 36004 ft | 471 kts | 200° |
| 2026-04-26 09:36 | 52.98920 | -106.22637 | 36008 ft | 471 kts | 200° |
| 2026-04-26 09:37 | 52.92721 | -106.26224 | 36009 ft | 471 kts | 200° |
| 2026-04-26 09:37 | 52.86520 | -106.29800 | 36014 ft | 471 kts | 200° |
| 2026-04-26 09:38 | 52.80374 | -106.33334 | 36015 ft | 470 kts | 200° |
| 2026-04-26 09:38 | 52.74194 | -106.36878 | 36022 ft | 471 kts | 200° |
| 2026-04-26 09:39 | 52.67995 | -106.40422 | 36026 ft | 471 kts | 200° |
| 2026-04-26 09:39 | 52.61795 | -106.43956 | 36027 ft | 471 kts | 200° |
| 2026-04-26 09:40 | 52.55614 | -106.47467 | 36029 ft | 470 kts | 200° |
| 2026-04-26 09:40 | 52.49455 | -106.50956 | 36028 ft | 469 kts | 200° |
| 2026-04-26 09:41 | 52.43286 | -106.54442 | 36009 ft | 469 kts | 200° |
| 2026-04-26 09:41 | 52.37093 | -106.57930 | 35985 ft | 469 kts | 200° |
| 2026-04-26 09:42 | 52.30921 | -106.61396 | 35967 ft | 469 kts | 200° |
| 2026-04-26 09:42 | 52.24769 | -106.64840 | 35954 ft | 469 kts | 200° |
| 2026-04-26 09:43 | 52.18592 | -106.68288 | 35949 ft | 469 kts | 200° |
| 2026-04-26 09:43 | 52.12414 | -106.71727 | 35952 ft | 469 kts | 200° |
| 2026-04-26 09:44 | 52.06227 | -106.75160 | 35959 ft | 469 kts | 200° |
| 2026-04-26 09:44 | 52.00089 | -106.78555 | 36037 ft | 468 kts | 200° |
| 2026-04-26 09:45 | 51.93932 | -106.81952 | 36037 ft | 467 kts | 200° |
| 2026-04-26 09:45 | 51.87773 | -106.85341 | 36046 ft | 467 kts | 201° |
| 2026-04-26 09:46 | 51.81621 | -106.88716 | 36050 ft | 467 kts | 201° |
| 2026-04-26 09:46 | 51.75457 | -106.92087 | 36043 ft | 466 kts | 201° |
| 2026-04-26 09:47 | 51.69326 | -106.95429 | 36043 ft | 465 kts | 201° |
| 2026-04-26 09:47 | 51.63225 | -106.98748 | 36056 ft | 464 kts | 201° |
| 2026-04-26 09:48 | 51.57096 | -107.02073 | 36062 ft | 464 kts | 201° |
| 2026-04-26 09:48 | 51.50959 | -107.05391 | 36055 ft | 464 kts | 201° |
| 2026-04-26 09:49 | 51.44883 | -107.08666 | 36060 ft | 462 kts | 201° |
| 2026-04-26 09:49 | 51.38786 | -107.11945 | 36066 ft | 462 kts | 201° |
| 2026-04-26 09:50 | 51.32672 | -107.15224 | 36067 ft | 462 kts | 201° |
| 2026-04-26 09:50 | 51.26587 | -107.18477 | 36067 ft | 461 kts | 201° |
| 2026-04-26 09:51 | 51.20496 | -107.21725 | 36071 ft | 460 kts | 201° |
| 2026-04-26 09:51 | 51.14453 | -107.24938 | 36072 ft | 459 kts | 201° |
| 2026-04-26 09:52 | 51.09380 | -107.27629 | 36073 ft | 459 kts | 201° |
| 2026-04-26 09:52 | 51.00320 | -107.32419 | 36079 ft | 459 kts | 201° |
| 2026-04-26 09:53 | 50.94267 | -107.35608 | 36074 ft | 458 kts | 201° |
| 2026-04-26 09:53 | 50.88204 | -107.38793 | 36074 ft | 457 kts | 201° |
| 2026-04-26 09:54 | 50.82151 | -107.41964 | 36074 ft | 457 kts | 201° |
| 2026-04-26 09:54 | 50.76151 | -107.45100 | 36072 ft | 457 kts | 201° |
| 2026-04-26 09:55 | 50.70104 | -107.48251 | 36072 ft | 457 kts | 201° |
| 2026-04-26 09:55 | 50.64081 | -107.51381 | 36077 ft | 455 kts | 201° |
| 2026-04-26 09:56 | 50.58046 | -107.54509 | 36056 ft | 456 kts | 201° |
| 2026-04-26 09:56 | 50.52008 | -107.57630 | 36029 ft | 456 kts | 201° |
| 2026-04-26 09:57 | 50.46010 | -107.60723 | 35988 ft | 456 kts | 201° |
| 2026-04-26 09:57 | 50.39966 | -107.63830 | 35972 ft | 454 kts | 201° |
| 2026-04-26 09:58 | 50.33953 | -107.66913 | 35962 ft | 454 kts | 201° |
| 2026-04-26 09:58 | 50.27990 | -107.69960 | 35962 ft | 454 kts | 200° |
| 2026-04-26 09:59 | 50.21967 | -107.72897 | 35955 ft | 454 kts | 200° |
| 2026-04-26 09:59 | 50.15912 | -107.75782 | 35987 ft | 453 kts | 200° |
| 2026-04-26 10:00 | 50.09899 | -107.78658 | 36016 ft | 452 kts | 200° |
| 2026-04-26 10:00 | 50.03924 | -107.81526 | 36097 ft | 451 kts | 200° |
| 2026-04-26 10:01 | 49.97903 | -107.84415 | 36094 ft | 451 kts | 200° |
| 2026-04-26 10:01 | 49.91904 | -107.87283 | 36088 ft | 450 kts | 200° |
| 2026-04-26 10:02 | 49.85964 | -107.90115 | 36095 ft | 447 kts | 200° |
| 2026-04-26 10:02 | 49.80019 | -107.92942 | 36088 ft | 447 kts | 200° |
| 2026-04-26 10:03 | 49.74059 | -107.95771 | 36096 ft | 447 kts | 200° |
| 2026-04-26 10:03 | 49.68121 | -107.98581 | 36090 ft | 447 kts | 200° |
| 2026-04-26 10:04 | 49.62153 | -108.01397 | 36093 ft | 447 kts | 200° |
| 2026-04-26 10:04 | 49.56228 | -108.04187 | 36095 ft | 447 kts | 200° |
| 2026-04-26 10:05 | 49.50268 | -108.06985 | 36090 ft | 447 kts | 200° |
| 2026-04-26 10:05 | 49.44310 | -108.09776 | 36083 ft | 447 kts | 200° |
| 2026-04-26 10:06 | 49.38402 | -108.12534 | 36086 ft | 445 kts | 200° |
| 2026-04-26 10:06 | 49.32471 | -108.15299 | 36091 ft | 445 kts | 200° |
| 2026-04-26 10:07 | 49.26541 | -108.18056 | 36092 ft | 445 kts | 200° |
| 2026-04-26 10:07 | 49.20652 | -108.20787 | 36085 ft | 445 kts | 200° |
| 2026-04-26 10:08 | 49.14720 | -108.23529 | 36083 ft | 444 kts | 200° |
| 2026-04-26 10:08 | 49.08816 | -108.26253 | 36083 ft | 443 kts | 200° |
| 2026-04-26 10:09 | 49.02894 | -108.28979 | 36077 ft | 443 kts | 200° |
| 2026-04-26 10:09 | 48.97025 | -108.31673 | 36072 ft | 443 kts | 200° |
| 2026-04-26 10:10 | 48.91106 | -108.34383 | 36072 ft | 443 kts | 200° |
| 2026-04-26 10:10 | 48.85189 | -108.37086 | 36066 ft | 443 kts | 200° |
| 2026-04-26 10:11 | 48.79326 | -108.39758 | 36064 ft | 443 kts | 200° |
| 2026-04-26 10:11 | 48.73413 | -108.42447 | 36063 ft | 443 kts | 200° |
| 2026-04-26 10:12 | 48.67515 | -108.45121 | 36053 ft | 443 kts | 200° |
| 2026-04-26 10:12 | 48.61590 | -108.47801 | 36050 ft | 443 kts | 200° |
| 2026-04-26 10:13 | 48.55717 | -108.50451 | 36040 ft | 443 kts | 200° |
| 2026-04-26 10:13 | 48.49804 | -108.53113 | 36043 ft | 443 kts | 200° |
| 2026-04-26 10:14 | 48.43884 | -108.55771 | 36034 ft | 443 kts | 200° |
| 2026-04-26 10:14 | 48.37959 | -108.58426 | 36032 ft | 444 kts | 200° |
| 2026-04-26 10:15 | 48.32035 | -108.61072 | 36028 ft | 444 kts | 200° |
| 2026-04-26 10:15 | 48.26135 | -108.63702 | 36028 ft | 444 kts | 200° |
| 2026-04-26 10:16 | 48.20210 | -108.66337 | 36014 ft | 444 kts | 200° |
| 2026-04-26 10:16 | 48.14268 | -108.68973 | 36025 ft | 444 kts | 200° |
| 2026-04-26 10:17 | 48.08386 | -108.71576 | 36021 ft | 444 kts | 200° |
| 2026-04-26 10:17 | 48.02458 | -108.74194 | 36020 ft | 444 kts | 200° |
| 2026-04-26 10:18 | 47.96553 | -108.76794 | 36008 ft | 444 kts | 200° |
| 2026-04-26 10:18 | 47.90620 | -108.79402 | 36014 ft | 443 kts | 200° |
| 2026-04-26 10:19 | 47.84707 | -108.81994 | 36014 ft | 443 kts | 200° |
| 2026-04-26 10:19 | 47.78787 | -108.84583 | 36015 ft | 443 kts | 200° |
| 2026-04-26 10:20 | 47.73847 | -108.86739 | 36010 ft | 443 kts | 199° |
| 2026-04-26 10:20 | 47.66969 | -108.89733 | 36006 ft | 442 kts | 199° |
| 2026-04-26 10:21 | 47.61060 | -108.92298 | 36005 ft | 442 kts | 199° |
| 2026-04-26 10:21 | 47.55147 | -108.94859 | 36007 ft | 442 kts | 199° |
| 2026-04-26 10:22 | 47.49262 | -108.97403 | 35995 ft | 442 kts | 199° |
| 2026-04-26 10:22 | 47.43360 | -108.99947 | 35995 ft | 441 kts | 199° |
| 2026-04-26 10:23 | 47.37462 | -109.02484 | 35999 ft | 441 kts | 199° |
| 2026-04-26 10:23 | 47.31559 | -109.05018 | 35997 ft | 441 kts | 199° |
| 2026-04-26 10:24 | 47.25645 | -109.07550 | 35993 ft | 441 kts | 199° |
| 2026-04-26 10:24 | 47.20246 | -109.09857 | 36119 ft | 439 kts | 196° |
| 2026-04-26 10:25 | 47.14265 | -109.12411 | 36145 ft | 454 kts | 199° |
| 2026-04-26 10:25 | 47.11216 | -109.13711 | 36274 ft | 458 kts | 199° |
| 2026-04-26 10:25 | 47.08141 | -109.15019 | 36414 ft | 462 kts | 199° |
| 2026-04-26 10:26 | 47.05028 | -109.16340 | 36545 ft | 466 kts | 199° |
| 2026-04-26 10:26 | 47.04160 | -109.16708 | 36585 ft | 467 kts | 199° |
| 2026-04-26 10:26 | 46.98909 | -109.18930 | 36783 ft | 473 kts | 199° |
| 2026-04-26 10:27 | 46.95732 | -109.20273 | 36936 ft | 476 kts | 199° |
| 2026-04-26 10:27 | 46.92539 | -109.21621 | 37118 ft | 478 kts | 199° |
| 2026-04-26 10:27 | 46.89328 | -109.22975 | 37345 ft | 479 kts | 199° |
| 2026-04-26 10:27 | 46.86126 | -109.24323 | 37600 ft | 479 kts | 199° |
| 2026-04-26 10:28 | 46.82908 | -109.25677 | 37839 ft | 480 kts | 199° |
| 2026-04-26 10:28 | 46.79711 | -109.27020 | 37986 ft | 479 kts | 199° |
| 2026-04-26 10:28 | 46.76799 | -109.28241 | 36765 ft | 476 kts | 198° |
| 2026-04-26 10:28 | 46.73630 | -109.29565 | 38133 ft | 475 kts | 199° |
| 2026-04-26 10:29 | 46.70465 | -109.30889 | 38021 ft | 474 kts | 199° |
| 2026-04-26 10:29 | 46.67306 | -109.32210 | 37977 ft | 469 kts | 199° |
| 2026-04-26 10:29 | 46.61034 | -109.34831 | 37976 ft | 467 kts | 199° |
| 2026-04-26 10:30 | 46.54770 | -109.37444 | 37974 ft | 468 kts | 199° |
| 2026-04-26 10:30 | 46.48543 | -109.40033 | 37981 ft | 467 kts | 199° |
| 2026-04-26 10:31 | 46.42272 | -109.42632 | 37978 ft | 467 kts | 199° |
| 2026-04-26 10:31 | 46.36021 | -109.45217 | 37984 ft | 467 kts | 199° |
| 2026-04-26 10:32 | 46.29802 | -109.47783 | 37983 ft | 466 kts | 199° |
| 2026-04-26 10:32 | 46.23551 | -109.50355 | 37989 ft | 465 kts | 199° |
| 2026-04-26 10:33 | 46.17323 | -109.52912 | 37984 ft | 464 kts | 199° |
| 2026-04-26 10:33 | 46.11137 | -109.55447 | 38003 ft | 465 kts | 199° |
| 2026-04-26 10:34 | 46.04867 | -109.58013 | 38198 ft | 471 kts | 199° |
| 2026-04-26 10:34 | 46.01712 | -109.59302 | 38314 ft | 474 kts | 199° |
| 2026-04-26 10:34 | 45.98526 | -109.60601 | 38383 ft | 477 kts | 199° |
| 2026-04-26 10:35 | 45.95337 | -109.61899 | 38516 ft | 478 kts | 199° |
| 2026-04-26 10:35 | 45.92132 | -109.63201 | 38662 ft | 479 kts | 199° |
| 2026-04-26 10:35 | 45.88899 | -109.64513 | 38792 ft | 480 kts | 199° |
| 2026-04-26 10:35 | 45.85687 | -109.65814 | 38947 ft | 479 kts | 199° |
| 2026-04-26 10:36 | 45.82483 | -109.67110 | 39150 ft | 478 kts | 199° |
| 2026-04-26 10:36 | 45.79312 | -109.68392 | 39290 ft | 478 kts | 199° |
| 2026-04-26 10:36 | 45.76098 | -109.69691 | 39394 ft | 479 kts | 199° |
| 2026-04-26 10:36 | 45.72879 | -109.70991 | 39526 ft | 479 kts | 199° |
| 2026-04-26 10:37 | 45.69695 | -109.72275 | 39638 ft | 479 kts | 199° |
| 2026-04-26 10:37 | 45.66458 | -109.73578 | 39759 ft | 479 kts | 199° |
| 2026-04-26 10:37 | 45.63269 | -109.74860 | 39870 ft | 479 kts | 199° |
| 2026-04-26 10:37 | 45.60071 | -109.76145 | 39958 ft | 479 kts | 199° |
| 2026-04-26 10:38 | 45.53646 | -109.78721 | 39959 ft | 478 kts | 199° |
| 2026-04-26 10:38 | 45.47240 | -109.81283 | 39938 ft | 478 kts | 199° |
| 2026-04-26 10:39 | 45.40836 | -109.83839 | 39931 ft | 479 kts | 199° |
| 2026-04-26 10:39 | 45.34454 | -109.86380 | 39935 ft | 478 kts | 199° |
| 2026-04-26 10:40 | 45.28062 | -109.88919 | 39921 ft | 477 kts | 199° |
| 2026-04-26 10:40 | 45.21664 | -109.91455 | 39917 ft | 477 kts | 199° |
| 2026-04-26 10:41 | 45.16335 | -109.93561 | 39910 ft | 477 kts | 199° |
| 2026-04-26 10:41 | 45.08874 | -109.96506 | 39912 ft | 477 kts | 199° |
| 2026-04-26 10:42 | 45.03539 | -109.98607 | 39911 ft | 478 kts | 199° |
| 2026-04-26 10:42 | 44.97241 | -110.01546 | 39915 ft | 476 kts | 204° |
| 2026-04-26 10:43 | 44.91098 | -110.04929 | 39909 ft | 475 kts | 205° |
| 2026-04-26 10:43 | 44.84944 | -110.08386 | 39920 ft | 475 kts | 205° |
| 2026-04-26 10:44 | 44.78798 | -110.11825 | 39916 ft | 475 kts | 205° |
| 2026-04-26 10:44 | 44.72642 | -110.15248 | 39912 ft | 475 kts | 205° |
| 2026-04-26 10:45 | 44.66495 | -110.18652 | 39916 ft | 474 kts | 205° |
| 2026-04-26 10:45 | 44.60388 | -110.22027 | 39921 ft | 474 kts | 205° |
| 2026-04-26 10:46 | 44.54236 | -110.25420 | 39907 ft | 474 kts | 205° |
| 2026-04-26 10:46 | 44.48093 | -110.28800 | 39903 ft | 473 kts | 205° |
| 2026-04-26 10:47 | 44.41979 | -110.32155 | 39907 ft | 471 kts | 205° |
| 2026-04-26 10:47 | 44.35911 | -110.35479 | 39908 ft | 470 kts | 205° |
| 2026-04-26 10:48 | 44.29809 | -110.38815 | 39893 ft | 469 kts | 205° |
| 2026-04-26 10:48 | 44.23739 | -110.42124 | 39901 ft | 467 kts | 205° |
| 2026-04-26 10:49 | 44.17705 | -110.45408 | 39897 ft | 467 kts | 205° |
| 2026-04-26 10:49 | 44.11655 | -110.48693 | 39887 ft | 466 kts | 205° |
| 2026-04-26 10:50 | 44.06625 | -110.51418 | 39893 ft | 465 kts | 205° |
| 2026-04-26 10:50 | 43.99577 | -110.55228 | 39894 ft | 464 kts | 205° |
| 2026-04-26 10:51 | 43.90567 | -110.60086 | 39889 ft | 464 kts | 205° |
| 2026-04-26 10:52 | 43.84552 | -110.63320 | 39860 ft | 463 kts | 204° |
| 2026-04-26 10:52 | 43.78534 | -110.66548 | 39836 ft | 463 kts | 204° |
| 2026-04-26 10:53 | 43.72545 | -110.69754 | 39822 ft | 463 kts | 204° |
| 2026-04-26 10:53 | 43.66524 | -110.72970 | 39814 ft | 463 kts | 204° |
| 2026-04-26 10:54 | 43.57501 | -110.77776 | 39871 ft | 461 kts | 204° |
| 2026-04-26 10:54 | 43.51515 | -110.80956 | 39860 ft | 461 kts | 204° |
| 2026-04-26 10:55 | 43.45553 | -110.84118 | 39859 ft | 462 kts | 204° |
| 2026-04-26 10:55 | 43.39568 | -110.87284 | 39844 ft | 461 kts | 204° |
| 2026-04-26 10:56 | 43.33560 | -110.90455 | 39843 ft | 461 kts | 204° |
| 2026-04-26 10:56 | 43.27578 | -110.93607 | 39835 ft | 461 kts | 204° |
| 2026-04-26 10:57 | 43.21571 | -110.96765 | 39821 ft | 464 kts | 204° |
| 2026-04-26 10:57 | 43.15563 | -110.99918 | 39816 ft | 468 kts | 204° |
| 2026-04-26 10:58 | 43.09452 | -111.03116 | 39807 ft | 470 kts | 204° |
| 2026-04-26 10:58 | 43.03343 | -111.06306 | 39793 ft | 470 kts | 204° |
| 2026-04-26 10:59 | 42.97228 | -111.09492 | 39782 ft | 471 kts | 204° |
| 2026-04-26 10:59 | 42.91084 | -111.12688 | 39782 ft | 471 kts | 204° |
| 2026-04-26 11:00 | 42.84993 | -111.15849 | 39782 ft | 472 kts | 204° |
| 2026-04-26 11:00 | 42.78845 | -111.19032 | 39777 ft | 472 kts | 204° |
| 2026-04-26 11:01 | 42.72706 | -111.22205 | 39770 ft | 472 kts | 204° |
| 2026-04-26 11:01 | 42.66598 | -111.25354 | 39760 ft | 472 kts | 204° |
| 2026-04-26 11:02 | 42.60451 | -111.28518 | 39745 ft | 472 kts | 204° |
| 2026-04-26 11:02 | 42.54296 | -111.31678 | 39726 ft | 473 kts | 204° |
| 2026-04-26 11:03 | 42.48172 | -111.34817 | 39711 ft | 473 kts | 204° |
| 2026-04-26 11:03 | 42.42014 | -111.37966 | 39701 ft | 473 kts | 204° |
| 2026-04-26 11:04 | 42.35846 | -111.41113 | 39694 ft | 473 kts | 204° |
| 2026-04-26 11:04 | 42.29654 | -111.44266 | 39696 ft | 474 kts | 204° |
| 2026-04-26 11:05 | 42.23499 | -111.47393 | 39695 ft | 474 kts | 203° |
| 2026-04-26 11:05 | 42.17326 | -111.50523 | 39694 ft | 475 kts | 204° |
| 2026-04-26 11:06 | 42.11139 | -111.53654 | 39691 ft | 475 kts | 204° |
| 2026-04-26 11:06 | 42.04952 | -111.56778 | 39690 ft | 475 kts | 203° |
| 2026-04-26 11:07 | 41.98756 | -111.59900 | 39691 ft | 475 kts | 203° |
| 2026-04-26 11:07 | 41.92550 | -111.63021 | 39700 ft | 475 kts | 204° |
| 2026-04-26 11:08 | 41.86373 | -111.66120 | 39707 ft | 475 kts | 203° |
| 2026-04-26 11:08 | 41.80219 | -111.69203 | 39716 ft | 475 kts | 203° |
| 2026-04-26 11:09 | 41.74006 | -111.72307 | 39716 ft | 475 kts | 203° |
| 2026-04-26 11:09 | 41.67820 | -111.75391 | 39708 ft | 475 kts | 204° |
| 2026-04-26 11:10 | 41.61642 | -111.78467 | 39700 ft | 475 kts | 203° |
| 2026-04-26 11:10 | 41.55444 | -111.81546 | 39693 ft | 476 kts | 203° |
| 2026-04-26 11:11 | 41.49226 | -111.84628 | 39689 ft | 476 kts | 203° |
| 2026-04-26 11:11 | 41.43026 | -111.87694 | 39681 ft | 476 kts | 203° |
| 2026-04-26 11:12 | 41.36794 | -111.90770 | 39693 ft | 476 kts | 203° |
| 2026-04-26 11:12 | 41.30588 | -111.93827 | 39709 ft | 476 kts | 203° |
| 2026-04-26 11:13 | 41.24397 | -111.96871 | 39718 ft | 475 kts | 203° |
| 2026-04-26 11:13 | 41.18213 | -111.99905 | 39720 ft | 474 kts | 203° |
| 2026-04-26 11:14 | 41.12006 | -112.02944 | 39730 ft | 474 kts | 203° |
| 2026-04-26 11:14 | 41.06866 | -112.05456 | 39730 ft | 474 kts | 203° |
| 2026-04-26 11:15 | 40.99676 | -112.08963 | 39709 ft | 472 kts | 203° |
| 2026-04-26 11:15 | 40.93498 | -112.11970 | 39690 ft | 472 kts | 203° |
| 2026-04-26 11:16 | 40.87320 | -112.14971 | 39699 ft | 473 kts | 203° |
| 2026-04-26 11:16 | 40.81134 | -112.17970 | 39700 ft | 473 kts | 203° |
| 2026-04-26 11:17 | 40.74999 | -112.20938 | 39682 ft | 472 kts | 203° |
| 2026-04-26 11:17 | 40.68826 | -112.23918 | 39707 ft | 472 kts | 203° |
| 2026-04-26 11:18 | 40.62637 | -112.26901 | 39705 ft | 472 kts | 203° |
| 2026-04-26 11:18 | 40.56466 | -112.29869 | 39704 ft | 472 kts | 203° |
| 2026-04-26 11:19 | 40.50329 | -112.32814 | 39695 ft | 472 kts | 203° |
| 2026-04-26 11:19 | 40.44156 | -112.35772 | 39672 ft | 472 kts | 203° |
| 2026-04-26 11:20 | 40.39008 | -112.38234 | 39657 ft | 472 kts | 203° |
| 2026-04-26 11:20 | 40.31819 | -112.41664 | 39648 ft | 472 kts | 203° |
| 2026-04-26 11:21 | 40.25653 | -112.44601 | 39640 ft | 472 kts | 203° |
| 2026-04-26 11:21 | 40.19468 | -112.47541 | 39627 ft | 472 kts | 203° |
| 2026-04-26 11:22 | 40.13321 | -112.50458 | 39626 ft | 472 kts | 203° |
| 2026-04-26 11:22 | 40.07134 | -112.53387 | 39634 ft | 472 kts | 203° |
| 2026-04-26 11:23 | 40.00953 | -112.56309 | 39635 ft | 473 kts | 203° |
| 2026-04-26 11:23 | 39.94745 | -112.59238 | 39630 ft | 473 kts | 203° |
| 2026-04-26 11:24 | 39.88548 | -112.62120 | 39627 ft | 473 kts | 202° |
| 2026-04-26 11:24 | 39.82380 | -112.64966 | 39625 ft | 473 kts | 202° |
| 2026-04-26 11:25 | 39.76182 | -112.67826 | 39630 ft | 473 kts | 202° |
| 2026-04-26 11:25 | 39.69949 | -112.70702 | 39617 ft | 473 kts | 202° |
| 2026-04-26 11:26 | 39.63729 | -112.73568 | 39638 ft | 473 kts | 202° |
| 2026-04-26 11:26 | 39.57541 | -112.76414 | 39654 ft | 473 kts | 202° |
| 2026-04-26 11:27 | 39.51371 | -112.79246 | 39663 ft | 473 kts | 202° |
| 2026-04-26 11:27 | 39.45147 | -112.82097 | 39656 ft | 473 kts | 202° |
| 2026-04-26 11:28 | 39.38959 | -112.84926 | 39651 ft | 473 kts | 202° |
| 2026-04-26 11:28 | 39.32748 | -112.87761 | 39603 ft | 472 kts | 202° |
| 2026-04-26 11:29 | 39.27594 | -112.90109 | 39601 ft | 472 kts | 202° |
| 2026-04-26 11:29 | 39.21381 | -112.92935 | 39591 ft | 472 kts | 202° |
| 2026-04-26 11:30 | 39.15224 | -112.95730 | 39605 ft | 472 kts | 202° |
| 2026-04-26 11:30 | 39.09029 | -112.98537 | 39603 ft | 472 kts | 202° |
| 2026-04-26 11:31 | 39.02825 | -113.01343 | 39605 ft | 472 kts | 202° |
| 2026-04-26 11:31 | 38.96604 | -113.04152 | 39608 ft | 472 kts | 202° |
| 2026-04-26 11:32 | 38.90414 | -113.06941 | 39609 ft | 472 kts | 202° |
| 2026-04-26 11:32 | 38.84242 | -113.09717 | 39596 ft | 472 kts | 202° |
| 2026-04-26 11:33 | 38.78035 | -113.12503 | 39614 ft | 472 kts | 202° |
| 2026-04-26 11:33 | 38.71853 | -113.15274 | 39624 ft | 472 kts | 202° |
| 2026-04-26 11:34 | 38.65632 | -113.18058 | 39662 ft | 471 kts | 202° |
| 2026-04-26 11:34 | 38.59475 | -113.20814 | 39677 ft | 471 kts | 202° |
| 2026-04-26 11:35 | 38.53274 | -113.23569 | 39684 ft | 471 kts | 202° |
| 2026-04-26 11:35 | 38.47067 | -113.26323 | 39687 ft | 472 kts | 202° |
| 2026-04-26 11:36 | 38.40889 | -113.29063 | 39684 ft | 472 kts | 202° |
| 2026-04-26 11:36 | 38.34674 | -113.31816 | 39670 ft | 471 kts | 202° |
| 2026-04-26 11:37 | 38.28476 | -113.34556 | 39658 ft | 471 kts | 202° |
| 2026-04-26 11:37 | 38.23160 | -113.36902 | 39653 ft | 472 kts | 202° |
| 2026-04-26 11:38 | 38.18382 | -113.39007 | 39649 ft | 472 kts | 202° |
| 2026-04-26 11:39 | 38.12171 | -113.41740 | 39652 ft | 472 kts | 202° |
| 2026-04-26 11:39 | 38.05989 | -113.44454 | 39657 ft | 472 kts | 202° |
| 2026-04-26 11:40 | 37.99767 | -113.47182 | 39660 ft | 472 kts | 202° |
| 2026-04-26 11:40 | 37.93618 | -113.50021 | 39669 ft | 469 kts | 207° |
| 2026-04-26 11:42 | 37.70790 | -113.65719 | 39683 ft | 467 kts | 212° |
| 2026-04-26 11:43 | 37.65075 | -113.69690 | 39691 ft | 468 kts | 212° |
| 2026-04-26 11:43 | 37.59356 | -113.73653 | 39692 ft | 468 kts | 212° |
| 2026-04-26 11:44 | 37.53669 | -113.77587 | 39688 ft | 467 kts | 212° |
| 2026-04-26 11:44 | 37.48002 | -113.81501 | 39697 ft | 466 kts | 212° |
| 2026-04-26 11:45 | 37.42314 | -113.85424 | 39698 ft | 466 kts | 212° |
| 2026-04-26 11:45 | 37.36613 | -113.89348 | 39694 ft | 466 kts | 212° |
| 2026-04-26 11:46 | 37.30922 | -113.93258 | 39691 ft | 466 kts | 212° |
| 2026-04-26 11:46 | 37.25227 | -113.97164 | 39690 ft | 465 kts | 212° |
| 2026-04-26 11:47 | 37.19572 | -114.01037 | 39683 ft | 465 kts | 212° |
| 2026-04-26 11:47 | 37.13869 | -114.04936 | 39683 ft | 465 kts | 212° |
| 2026-04-26 11:48 | 37.08220 | -114.08791 | 39679 ft | 465 kts | 212° |
| 2026-04-26 11:48 | 37.02532 | -114.12666 | 39663 ft | 465 kts | 212° |
| 2026-04-26 11:49 | 36.96861 | -114.16522 | 39668 ft | 463 kts | 212° |
| 2026-04-26 11:49 | 36.91209 | -114.20359 | 39672 ft | 462 kts | 212° |
| 2026-04-26 11:50 | 36.85545 | -114.24199 | 39672 ft | 462 kts | 212° |
| 2026-04-26 11:50 | 36.79881 | -114.28031 | 39672 ft | 462 kts | 212° |
| 2026-04-26 11:51 | 36.74257 | -114.31829 | 39668 ft | 462 kts | 212° |
| 2026-04-26 11:51 | 36.68602 | -114.35643 | 39680 ft | 461 kts | 212° |
| 2026-04-26 11:52 | 36.63898 | -114.38810 | 39661 ft | 461 kts | 212° |
| 2026-04-26 11:52 | 36.57261 | -114.43272 | 39682 ft | 465 kts | 212° |
| 2026-04-26 11:53 | 36.51587 | -114.47080 | 39683 ft | 466 kts | 211° |
| 2026-04-26 11:54 | 36.43035 | -114.52893 | 39683 ft | 467 kts | 214° |
| 2026-04-26 11:54 | 36.37527 | -114.57172 | 39680 ft | 466 kts | 216° |
| 2026-04-26 11:55 | 36.32063 | -114.61497 | 39681 ft | 466 kts | 216° |
| 2026-04-26 11:55 | 36.26593 | -114.65743 | 39690 ft | 466 kts | 215° |
| 2026-04-26 11:56 | 36.21073 | -114.69972 | 39685 ft | 465 kts | 215° |
| 2026-04-26 11:56 | 36.15570 | -114.74173 | 39732 ft | 465 kts | 215° |
| 2026-04-26 11:57 | 36.10070 | -114.78367 | 39773 ft | 465 kts | 215° |
| 2026-04-26 11:57 | 36.04568 | -114.82558 | 39775 ft | 465 kts | 215° |
| 2026-04-26 11:58 | 35.98923 | -114.86501 | 39772 ft | 469 kts | 207° |
| 2026-04-26 11:58 | 35.92825 | -114.89348 | 39771 ft | 469 kts | 205° |
| 2026-04-26 11:59 | 35.86698 | -114.92082 | 39779 ft | 468 kts | 204° |
| 2026-04-26 11:59 | 35.80566 | -114.94808 | 39767 ft | 468 kts | 204° |
| 2026-04-26 12:00 | 35.74433 | -114.97528 | 39786 ft | 468 kts | 204° |
| 2026-04-26 12:00 | 35.68311 | -115.00238 | 39784 ft | 468 kts | 204° |
| 2026-04-26 12:01 | 35.62211 | -115.02932 | 39820 ft | 467 kts | 205° |
| 2026-04-26 12:01 | 35.54112 | -115.06593 | 39815 ft | 463 kts | 208° |
| 2026-04-26 12:01 | 35.48790 | -115.10728 | 39814 ft | 452 kts | 225° |
| 2026-04-26 12:02 | 35.44413 | -115.16265 | 39820 ft | 449 kts | 230° |
| 2026-04-26 12:02 | 35.37094 | -115.25843 | 39823 ft | 446 kts | 229° |
| 2026-04-26 12:03 | 35.33241 | -115.30862 | 39845 ft | 446 kts | 229° |
| 2026-04-26 12:03 | 35.28984 | -115.36396 | 39839 ft | 445 kts | 230° |
| 2026-04-26 12:04 | 35.21326 | -115.46326 | 39852 ft | 443 kts | 230° |
| 2026-04-26 12:04 | 35.08278 | -115.63446 | 39870 ft | 390 kts | 227° |
| 2026-04-26 12:04 | 35.03996 | -115.68711 | 39863 ft | 379 kts | 227° |
| 2026-04-26 12:05 | 35.01598 | -115.71724 | 39864 ft | 379 kts | 230° |
| 2026-04-26 12:05 | 34.99275 | -115.74669 | 39861 ft | 385 kts | 230° |
| 2026-04-26 12:06 | 34.95606 | -115.79329 | 39858 ft | 395 kts | 230° |
| 2026-04-26 12:07 | 34.87794 | -115.89255 | 39844 ft | 415 kts | 230° |
| 2026-04-26 12:07 | 34.79651 | -115.99577 | 39825 ft | 432 kts | 229° |
| 2026-04-26 12:08 | 34.71227 | -116.10293 | 39829 ft | 439 kts | 230° |
| 2026-04-26 12:08 | 34.62835 | -116.20952 | 39616 ft | 424 kts | 230° |
| 2026-04-26 12:08 | 34.58843 | -116.26012 | 38889 ft | 412 kts | 230° |
| 2026-04-26 12:09 | 34.54891 | -116.31020 | 37751 ft | 407 kts | 230° |
| 2026-04-26 12:09 | 34.50989 | -116.35957 | 36502 ft | 404 kts | 230° |
| 2026-04-26 12:09 | 34.47101 | -116.40867 | 35253 ft | 402 kts | 230° |
| 2026-04-26 12:09 | 34.43282 | -116.45712 | 34153 ft | 396 kts | 231° |
| 2026-04-26 12:10 | 34.40227 | -116.51145 | 32195 ft | 385 kts | 244° |
| 2026-04-26 12:10 | 34.37941 | -116.56752 | 30781 ft | 361 kts | 244° |
| 2026-04-26 12:10 | 34.35787 | -116.62005 | 29942 ft | 348 kts | 244° |
| 2026-04-26 12:10 | 34.33629 | -116.67246 | 29043 ft | 344 kts | 244° |
| 2026-04-26 12:11 | 34.31540 | -116.72436 | 28130 ft | 341 kts | 245° |
| 2026-04-26 12:11 | 34.29458 | -116.77615 | 27188 ft | 340 kts | 245° |
| 2026-04-26 12:11 | 34.27393 | -116.82744 | 26257 ft | 336 kts | 245° |
| 2026-04-26 12:11 | 34.25391 | -116.87706 | 25354 ft | 333 kts | 245° |
| 2026-04-26 12:12 | 34.23358 | -116.92738 | 24395 ft | 331 kts | 246° |
| 2026-04-26 12:12 | 34.21353 | -116.97740 | 23425 ft | 330 kts | 248° |
| 2026-04-26 12:12 | 34.19849 | -117.02942 | 22392 ft | 326 kts | 252° |
| 2026-04-26 12:12 | 34.18919 | -117.06399 | 21777 ft | 324 kts | 252° |
| 2026-04-26 12:13 | 34.17060 | -117.13272 | 20501 ft | 321 kts | 252° |
| 2026-04-26 12:13 | 34.15687 | -117.18356 | 19554 ft | 320 kts | 252° |
| 2026-04-26 12:13 | 34.14277 | -117.23454 | 18635 ft | 321 kts | 252° |
| 2026-04-26 12:13 | 34.12864 | -117.28568 | 17608 ft | 321 kts | 252° |
| 2026-04-26 12:14 | 34.11453 | -117.33680 | 16638 ft | 318 kts | 252° |
| 2026-04-26 12:14 | 34.10078 | -117.38707 | 15656 ft | 315 kts | 253° |
| 2026-04-26 12:14 | 34.08842 | -117.43712 | 14883 ft | 304 kts | 253° |
| 2026-04-26 12:14 | 34.07650 | -117.48504 | 14180 ft | 295 kts | 253° |
| 2026-04-26 12:15 | 34.06477 | -117.53204 | 13791 ft | 294 kts | 253° |
| 2026-04-26 12:15 | 34.05260 | -117.57932 | 13785 ft | 295 kts | 253° |
| 2026-04-26 12:15 | 34.04056 | -117.62623 | 13781 ft | 295 kts | 253° |
| 2026-04-26 12:15 | 34.02926 | -117.67030 | 13797 ft | 295 kts | 253° |
| 2026-04-26 12:16 | 34.02341 | -117.69401 | 13794 ft | 294 kts | 256° |
| 2026-04-26 12:16 | 34.01992 | -117.71829 | 13796 ft | 294 kts | 262° |
| 2026-04-26 12:16 | 34.01834 | -117.73460 | 13780 ft | 294 kts | 263° |
| 2026-04-26 12:16 | 34.01528 | -117.76719 | 13771 ft | 294 kts | 263° |
| 2026-04-26 12:17 | 34.01372 | -117.78370 | 13775 ft | 294 kts | 263° |
| 2026-04-26 12:17 | 34.01139 | -117.80818 | 13774 ft | 294 kts | 263° |
| 2026-04-26 12:17 | 34.00903 | -117.83249 | 13771 ft | 294 kts | 263° |
| 2026-04-26 12:17 | 34.00666 | -117.85724 | 13770 ft | 294 kts | 263° |
| 2026-04-26 12:18 | 34.00298 | -117.88121 | 13770 ft | 294 kts | 255° |
| 2026-04-26 12:18 | 33.99237 | -117.90229 | 13782 ft | 299 kts | 226° |
| 2026-04-26 12:18 | 33.97390 | -117.91417 | 13782 ft | 312 kts | 198° |
| 2026-04-26 12:18 | 33.95183 | -117.91358 | 13786 ft | 329 kts | 170° |
| 2026-04-26 12:19 | 33.93135 | -117.90018 | 13791 ft | 344 kts | 146° |
| 2026-04-26 12:19 | 33.91340 | -117.88084 | 13787 ft | 347 kts | 143° |
| 2026-04-26 12:19 | 33.89499 | -117.86200 | 13766 ft | 346 kts | 150° |
| 2026-04-26 12:19 | 33.87383 | -117.84849 | 13769 ft | 344 kts | 167° |
| 2026-04-26 12:20 | 33.85059 | -117.84410 | 13773 ft | 332 kts | 188° |
| 2026-04-26 12:20 | 33.82873 | -117.85035 | 13775 ft | 319 kts | 210° |
| 2026-04-26 12:20 | 33.81117 | -117.86557 | 13774 ft | 311 kts | 230° |
| 2026-04-26 12:20 | 33.79988 | -117.88602 | 13814 ft | 306 kts | 245° |
| 2026-04-26 12:21 | 33.78862 | -117.90731 | 14144 ft | 299 kts | 229° |
| 2026-04-26 12:21 | 33.76950 | -117.91883 | 13023 ft | 335 kts | 192° |
| 2026-04-26 12:21 | 33.74494 | -117.92231 | 9086 ft | 357 kts | 188° |